<?xml version="1.0" encoding="UTF-8" standalone="no" ?>
<gpx xmlns="http://www.topografix.com/GPX/1/1" xmlns:xsi="http://www.w3.org/2001/XMLSchema-instance" xsi:schemaLocation="http://www.topografix.com/GPX/1/1 http://www.topografix.com/GPX/1/1/gpx.xsd" version="1.1" creator="VisuGPX - https://www.visugpx.com">
  <metadata>
    <name>TOUR DE LA BRESSE VTT</name>
  </metadata>
  <trk>
    <name><![CDATA[OR-6194873--Bresse (La):TOUR DE LA BRESSE VTT]]></name>
    <trkseg>
      <trkpt lat="48.00232" lon="6.87297">
        <ele>630</ele>
        <time>2017-05-16T14:24:01Z</time>
      </trkpt>
      <trkpt lat="48.00312" lon="6.87434">
        <ele>633</ele>
        <time>2017-05-16T14:26:01Z</time>
      </trkpt>
      <trkpt lat="48.00262" lon="6.87447">
        <ele>635</ele>
        <time>2017-05-16T14:28:01Z</time>
      </trkpt>
      <trkpt lat="48.00178" lon="6.87421">
        <ele>638</ele>
        <time>2017-05-16T14:30:01Z</time>
      </trkpt>
      <trkpt lat="48.00121" lon="6.87398">
        <ele>637</ele>
        <time>2017-05-16T14:32:01Z</time>
      </trkpt>
      <trkpt lat="48.0005" lon="6.87322">
        <ele>633</ele>
        <time>2017-05-16T14:34:01Z</time>
      </trkpt>
      <trkpt lat="47.99987" lon="6.87226">
        <ele>629</ele>
        <time>2017-05-16T14:36:01Z</time>
      </trkpt>
      <trkpt lat="47.99957" lon="6.87232">
        <ele>634</ele>
        <time>2017-05-16T14:38:01Z</time>
      </trkpt>
      <trkpt lat="47.99887" lon="6.8717">
        <ele>643</ele>
        <time>2017-05-16T14:40:01Z</time>
      </trkpt>
      <trkpt lat="47.99848" lon="6.87099">
        <ele>646</ele>
        <time>2017-05-16T14:42:01Z</time>
      </trkpt>
      <trkpt lat="47.99773" lon="6.86979">
        <ele>658</ele>
        <time>2017-05-16T14:44:01Z</time>
      </trkpt>
      <trkpt lat="47.99723" lon="6.86874">
        <ele>664</ele>
        <time>2017-05-16T14:46:01Z</time>
      </trkpt>
      <trkpt lat="47.9962" lon="6.867">
        <ele>680</ele>
        <time>2017-05-16T14:48:01Z</time>
      </trkpt>
      <trkpt lat="47.99512" lon="6.86524">
        <ele>692</ele>
        <time>2017-05-16T14:50:01Z</time>
      </trkpt>
      <trkpt lat="47.99473" lon="6.8652">
        <ele>703</ele>
        <time>2017-05-16T14:52:01Z</time>
      </trkpt>
      <trkpt lat="47.99393" lon="6.86507">
        <ele>723</ele>
        <time>2017-05-16T14:54:01Z</time>
      </trkpt>
      <trkpt lat="47.99433" lon="6.86415">
        <ele>712</ele>
        <time>2017-05-16T14:56:01Z</time>
      </trkpt>
      <trkpt lat="47.99455" lon="6.86305">
        <ele>713</ele>
        <time>2017-05-16T14:58:01Z</time>
      </trkpt>
      <trkpt lat="47.99462" lon="6.86198">
        <ele>715</ele>
        <time>2017-05-16T15:00:01Z</time>
      </trkpt>
      <trkpt lat="47.99443" lon="6.86138">
        <ele>717</ele>
        <time>2017-05-16T15:02:01Z</time>
      </trkpt>
      <trkpt lat="47.99373" lon="6.86125">
        <ele>731</ele>
        <time>2017-05-16T15:04:01Z</time>
      </trkpt>
      <trkpt lat="47.99335" lon="6.86076">
        <ele>733</ele>
        <time>2017-05-16T15:06:01Z</time>
      </trkpt>
      <trkpt lat="47.99259" lon="6.86065">
        <ele>748</ele>
        <time>2017-05-16T15:08:01Z</time>
      </trkpt>
      <trkpt lat="47.99183" lon="6.85938">
        <ele>755</ele>
        <time>2017-05-16T15:10:01Z</time>
      </trkpt>
      <trkpt lat="47.99071" lon="6.85713">
        <ele>790</ele>
        <time>2017-05-16T15:12:01Z</time>
      </trkpt>
      <trkpt lat="47.99014" lon="6.85531">
        <ele>813</ele>
        <time>2017-05-16T15:14:01Z</time>
      </trkpt>
      <trkpt lat="47.98946" lon="6.85445">
        <ele>823</ele>
        <time>2017-05-16T15:16:01Z</time>
      </trkpt>
      <trkpt lat="47.98847" lon="6.85398">
        <ele>844</ele>
        <time>2017-05-16T15:18:01Z</time>
      </trkpt>
      <trkpt lat="47.98712" lon="6.85351">
        <ele>860</ele>
        <time>2017-05-16T15:20:01Z</time>
      </trkpt>
      <trkpt lat="47.9861" lon="6.85353">
        <ele>864</ele>
        <time>2017-05-16T15:22:01Z</time>
      </trkpt>
      <trkpt lat="47.98517" lon="6.85434">
        <ele>869</ele>
        <time>2017-05-16T15:24:01Z</time>
      </trkpt>
      <trkpt lat="47.98502" lon="6.85533">
        <ele>872</ele>
        <time>2017-05-16T15:26:01Z</time>
      </trkpt>
      <trkpt lat="47.98501" lon="6.85619">
        <ele>875</ele>
        <time>2017-05-16T15:28:01Z</time>
      </trkpt>
      <trkpt lat="47.98521" lon="6.85715">
        <ele>888</ele>
        <time>2017-05-16T15:30:01Z</time>
      </trkpt>
      <trkpt lat="47.98492" lon="6.85756">
        <ele>893</ele>
        <time>2017-05-16T15:32:01Z</time>
      </trkpt>
      <trkpt lat="47.98448" lon="6.85756">
        <ele>901</ele>
        <time>2017-05-16T15:34:01Z</time>
      </trkpt>
      <trkpt lat="47.984" lon="6.85711">
        <ele>903</ele>
        <time>2017-05-16T15:36:01Z</time>
      </trkpt>
      <trkpt lat="47.98365" lon="6.8561">
        <ele>899</ele>
        <time>2017-05-16T15:38:01Z</time>
      </trkpt>
      <trkpt lat="47.98386" lon="6.85728">
        <ele>908</ele>
        <time>2017-05-16T15:40:01Z</time>
      </trkpt>
      <trkpt lat="47.98409" lon="6.85851">
        <ele>922</ele>
        <time>2017-05-16T15:42:01Z</time>
      </trkpt>
      <trkpt lat="47.98434" lon="6.85911">
        <ele>928</ele>
        <time>2017-05-16T15:44:01Z</time>
      </trkpt>
      <trkpt lat="47.98481" lon="6.85941">
        <ele>928</ele>
        <time>2017-05-16T15:46:01Z</time>
      </trkpt>
      <trkpt lat="47.98521" lon="6.86024">
        <ele>940</ele>
        <time>2017-05-16T15:48:01Z</time>
      </trkpt>
      <trkpt lat="47.98573" lon="6.86035">
        <ele>940</ele>
        <time>2017-05-16T15:50:01Z</time>
      </trkpt>
      <trkpt lat="47.98704" lon="6.85988">
        <ele>940</ele>
        <time>2017-05-16T15:52:01Z</time>
      </trkpt>
      <trkpt lat="47.988" lon="6.85951">
        <ele>939</ele>
        <time>2017-05-16T15:54:01Z</time>
      </trkpt>
      <trkpt lat="47.98836" lon="6.85996">
        <ele>936</ele>
        <time>2017-05-16T15:56:01Z</time>
      </trkpt>
      <trkpt lat="47.98861" lon="6.86091">
        <ele>935</ele>
        <time>2017-05-16T15:58:01Z</time>
      </trkpt>
      <trkpt lat="47.98877" lon="6.8619">
        <ele>932</ele>
        <time>2017-05-16T16:00:01Z</time>
      </trkpt>
      <trkpt lat="47.98877" lon="6.86278">
        <ele>926</ele>
        <time>2017-05-16T16:02:01Z</time>
      </trkpt>
      <trkpt lat="47.98859" lon="6.86374">
        <ele>920</ele>
        <time>2017-05-16T16:04:01Z</time>
      </trkpt>
      <trkpt lat="47.98804" lon="6.86486">
        <ele>915</ele>
        <time>2017-05-16T16:06:01Z</time>
      </trkpt>
      <trkpt lat="47.9876" lon="6.86529">
        <ele>914</ele>
        <time>2017-05-16T16:08:01Z</time>
      </trkpt>
      <trkpt lat="47.98728" lon="6.86599">
        <ele>904</ele>
        <time>2017-05-16T16:10:01Z</time>
      </trkpt>
      <trkpt lat="47.98683" lon="6.86711">
        <ele>901</ele>
        <time>2017-05-16T16:12:01Z</time>
      </trkpt>
      <trkpt lat="47.98676" lon="6.86808">
        <ele>891</ele>
        <time>2017-05-16T16:14:01Z</time>
      </trkpt>
      <trkpt lat="47.98698" lon="6.8688">
        <ele>881</ele>
        <time>2017-05-16T16:16:01Z</time>
      </trkpt>
      <trkpt lat="47.98755" lon="6.86958">
        <ele>878</ele>
        <time>2017-05-16T16:18:01Z</time>
      </trkpt>
      <trkpt lat="47.98757" lon="6.87071">
        <ele>882</ele>
        <time>2017-05-16T16:20:01Z</time>
      </trkpt>
      <trkpt lat="47.98771" lon="6.87132">
        <ele>887</ele>
        <time>2017-05-16T16:22:01Z</time>
      </trkpt>
      <trkpt lat="47.98765" lon="6.87262">
        <ele>890</ele>
        <time>2017-05-16T16:24:01Z</time>
      </trkpt>
      <trkpt lat="47.98797" lon="6.87361">
        <ele>895</ele>
        <time>2017-05-16T16:26:01Z</time>
      </trkpt>
      <trkpt lat="47.9886" lon="6.87503">
        <ele>906</ele>
        <time>2017-05-16T16:28:01Z</time>
      </trkpt>
      <trkpt lat="47.98896" lon="6.87586">
        <ele>919</ele>
        <time>2017-05-16T16:30:01Z</time>
      </trkpt>
      <trkpt lat="47.98873" lon="6.87453">
        <ele>914</ele>
        <time>2017-05-16T16:32:01Z</time>
      </trkpt>
      <trkpt lat="47.98856" lon="6.87342">
        <ele>913</ele>
        <time>2017-05-16T16:34:01Z</time>
      </trkpt>
      <trkpt lat="47.9894" lon="6.87509">
        <ele>935</ele>
        <time>2017-05-16T16:36:01Z</time>
      </trkpt>
      <trkpt lat="47.98995" lon="6.8776">
        <ele>953</ele>
        <time>2017-05-16T16:38:01Z</time>
      </trkpt>
      <trkpt lat="47.99001" lon="6.87844">
        <ele>955</ele>
        <time>2017-05-16T16:40:01Z</time>
      </trkpt>
      <trkpt lat="47.98976" lon="6.88127">
        <ele>976</ele>
        <time>2017-05-16T16:42:01Z</time>
      </trkpt>
      <trkpt lat="47.98962" lon="6.88269">
        <ele>987</ele>
        <time>2017-05-16T16:44:01Z</time>
      </trkpt>
      <trkpt lat="47.98972" lon="6.88453">
        <ele>1011</ele>
        <time>2017-05-16T16:46:01Z</time>
      </trkpt>
      <trkpt lat="47.98932" lon="6.88582">
        <ele>1013</ele>
        <time>2017-05-16T16:48:01Z</time>
      </trkpt>
      <trkpt lat="47.98873" lon="6.88689">
        <ele>1008</ele>
        <time>2017-05-16T16:50:01Z</time>
      </trkpt>
      <trkpt lat="47.98884" lon="6.88803">
        <ele>1020</ele>
        <time>2017-05-16T16:52:01Z</time>
      </trkpt>
      <trkpt lat="47.98897" lon="6.88891">
        <ele>1025</ele>
        <time>2017-05-16T16:54:01Z</time>
      </trkpt>
      <trkpt lat="47.98952" lon="6.89073">
        <ele>1038</ele>
        <time>2017-05-16T16:56:01Z</time>
      </trkpt>
      <trkpt lat="47.98949" lon="6.89146">
        <ele>1045</ele>
        <time>2017-05-16T16:58:01Z</time>
      </trkpt>
      <trkpt lat="47.98897" lon="6.89241">
        <ele>1053</ele>
        <time>2017-05-16T17:00:01Z</time>
      </trkpt>
      <trkpt lat="47.98872" lon="6.89372">
        <ele>1055</ele>
        <time>2017-05-16T17:02:01Z</time>
      </trkpt>
      <trkpt lat="47.98866" lon="6.89498">
        <ele>1056</ele>
        <time>2017-05-16T17:04:01Z</time>
      </trkpt>
      <trkpt lat="47.98834" lon="6.89608">
        <ele>1054</ele>
        <time>2017-05-16T17:06:01Z</time>
      </trkpt>
      <trkpt lat="47.98851" lon="6.89713">
        <ele>1066</ele>
        <time>2017-05-16T17:08:01Z</time>
      </trkpt>
      <trkpt lat="47.98777" lon="6.89638">
        <ele>1062</ele>
        <time>2017-05-16T17:10:01Z</time>
      </trkpt>
      <trkpt lat="47.98673" lon="6.89631">
        <ele>1071</ele>
        <time>2017-05-16T17:12:01Z</time>
      </trkpt>
      <trkpt lat="47.98606" lon="6.8964">
        <ele>1073</ele>
        <time>2017-05-16T17:14:01Z</time>
      </trkpt>
      <trkpt lat="47.98481" lon="6.89743">
        <ele>1091</ele>
        <time>2017-05-16T17:16:01Z</time>
      </trkpt>
      <trkpt lat="47.98423" lon="6.89846">
        <ele>1093</ele>
        <time>2017-05-16T17:18:01Z</time>
      </trkpt>
      <trkpt lat="47.98416" lon="6.90088">
        <ele>1088</ele>
        <time>2017-05-16T17:20:01Z</time>
      </trkpt>
      <trkpt lat="47.98403" lon="6.90271">
        <ele>1084</ele>
        <time>2017-05-16T17:22:01Z</time>
      </trkpt>
      <trkpt lat="47.984" lon="6.90408">
        <ele>1080</ele>
        <time>2017-05-16T17:24:01Z</time>
      </trkpt>
      <trkpt lat="47.98411" lon="6.90518">
        <ele>1085</ele>
        <time>2017-05-16T17:26:01Z</time>
      </trkpt>
      <trkpt lat="47.98372" lon="6.9064">
        <ele>1081</ele>
        <time>2017-05-16T17:28:01Z</time>
      </trkpt>
      <trkpt lat="47.98353" lon="6.90803">
        <ele>1082</ele>
        <time>2017-05-16T17:30:01Z</time>
      </trkpt>
      <trkpt lat="47.98367" lon="6.90874">
        <ele>1079</ele>
        <time>2017-05-16T17:32:01Z</time>
      </trkpt>
      <trkpt lat="47.98444" lon="6.91005">
        <ele>1076</ele>
        <time>2017-05-16T17:34:01Z</time>
      </trkpt>
      <trkpt lat="47.98484" lon="6.91105">
        <ele>1075</ele>
        <time>2017-05-16T17:36:01Z</time>
      </trkpt>
      <trkpt lat="47.98523" lon="6.91189">
        <ele>1076</ele>
        <time>2017-05-16T17:38:01Z</time>
      </trkpt>
      <trkpt lat="47.98546" lon="6.91326">
        <ele>1069</ele>
        <time>2017-05-16T17:40:01Z</time>
      </trkpt>
      <trkpt lat="47.98573" lon="6.91457">
        <ele>1067</ele>
        <time>2017-05-16T17:42:01Z</time>
      </trkpt>
      <trkpt lat="47.98642" lon="6.91646">
        <ele>1064</ele>
        <time>2017-05-16T17:44:01Z</time>
      </trkpt>
      <trkpt lat="47.98639" lon="6.91741">
        <ele>1067</ele>
        <time>2017-05-16T17:46:01Z</time>
      </trkpt>
      <trkpt lat="47.98659" lon="6.91927">
        <ele>1070</ele>
        <time>2017-05-16T17:48:01Z</time>
      </trkpt>
      <trkpt lat="47.98767" lon="6.92138">
        <ele>1056</ele>
        <time>2017-05-16T17:50:01Z</time>
      </trkpt>
      <trkpt lat="47.98859" lon="6.92294">
        <ele>1058</ele>
        <time>2017-05-16T17:52:01Z</time>
      </trkpt>
      <trkpt lat="47.9894" lon="6.92492">
        <ele>1066</ele>
        <time>2017-05-16T17:54:01Z</time>
      </trkpt>
      <trkpt lat="47.99011" lon="6.92608">
        <ele>1070</ele>
        <time>2017-05-16T17:56:01Z</time>
      </trkpt>
      <trkpt lat="47.99037" lon="6.92715">
        <ele>1068</ele>
        <time>2017-05-16T17:58:01Z</time>
      </trkpt>
      <trkpt lat="47.99068" lon="6.92734">
        <ele>1069</ele>
        <time>2017-05-16T18:00:01Z</time>
      </trkpt>
      <trkpt lat="47.99096" lon="6.9264">
        <ele>1068</ele>
        <time>2017-05-16T18:02:01Z</time>
      </trkpt>
      <trkpt lat="47.9911" lon="6.92511">
        <ele>1066</ele>
        <time>2017-05-16T18:04:01Z</time>
      </trkpt>
      <trkpt lat="47.99136" lon="6.92402">
        <ele>1060</ele>
        <time>2017-05-16T18:06:01Z</time>
      </trkpt>
      <trkpt lat="47.99143" lon="6.92288">
        <ele>1055</ele>
        <time>2017-05-16T18:08:01Z</time>
      </trkpt>
      <trkpt lat="47.99098" lon="6.92253">
        <ele>1058</ele>
        <time>2017-05-16T18:10:01Z</time>
      </trkpt>
      <trkpt lat="47.99147" lon="6.92243">
        <ele>1049</ele>
        <time>2017-05-16T18:12:01Z</time>
      </trkpt>
      <trkpt lat="47.99193" lon="6.92301">
        <ele>1044</ele>
        <time>2017-05-16T18:14:01Z</time>
      </trkpt>
      <trkpt lat="47.99192" lon="6.92532">
        <ele>1041</ele>
        <time>2017-05-16T18:16:01Z</time>
      </trkpt>
      <trkpt lat="47.99254" lon="6.92614">
        <ele>1026</ele>
        <time>2017-05-16T18:18:01Z</time>
      </trkpt>
      <trkpt lat="47.99361" lon="6.92734">
        <ele>1009</ele>
        <time>2017-05-16T18:20:01Z</time>
      </trkpt>
      <trkpt lat="47.99404" lon="6.92848">
        <ele>999</ele>
        <time>2017-05-16T18:22:01Z</time>
      </trkpt>
      <trkpt lat="47.99387" lon="6.92912">
        <ele>993</ele>
        <time>2017-05-16T18:24:01Z</time>
      </trkpt>
      <trkpt lat="47.99314" lon="6.92979">
        <ele>996</ele>
        <time>2017-05-16T18:26:01Z</time>
      </trkpt>
      <trkpt lat="47.99292" lon="6.93187">
        <ele>993</ele>
        <time>2017-05-16T18:28:01Z</time>
      </trkpt>
      <trkpt lat="47.99314" lon="6.93316">
        <ele>987</ele>
        <time>2017-05-16T18:30:01Z</time>
      </trkpt>
      <trkpt lat="47.99322" lon="6.93442">
        <ele>990</ele>
        <time>2017-05-16T18:32:01Z</time>
      </trkpt>
      <trkpt lat="47.99373" lon="6.93558">
        <ele>985</ele>
        <time>2017-05-16T18:34:01Z</time>
      </trkpt>
      <trkpt lat="47.9943" lon="6.93622">
        <ele>985</ele>
        <time>2017-05-16T18:36:01Z</time>
      </trkpt>
      <trkpt lat="47.99617" lon="6.93683">
        <ele>962</ele>
        <time>2017-05-16T18:38:01Z</time>
      </trkpt>
      <trkpt lat="47.99736" lon="6.93786">
        <ele>961</ele>
        <time>2017-05-16T18:40:01Z</time>
      </trkpt>
      <trkpt lat="47.99816" lon="6.93794">
        <ele>948</ele>
        <time>2017-05-16T18:42:01Z</time>
      </trkpt>
      <trkpt lat="47.99868" lon="6.93781">
        <ele>934</ele>
        <time>2017-05-16T18:44:01Z</time>
      </trkpt>
      <trkpt lat="47.99994" lon="6.93839">
        <ele>913</ele>
        <time>2017-05-16T18:46:01Z</time>
      </trkpt>
      <trkpt lat="48.00071" lon="6.93951">
        <ele>909</ele>
        <time>2017-05-16T18:48:01Z</time>
      </trkpt>
      <trkpt lat="48.00106" lon="6.94032">
        <ele>909</ele>
        <time>2017-05-16T18:50:01Z</time>
      </trkpt>
      <trkpt lat="48.00114" lon="6.94195">
        <ele>938</ele>
        <time>2017-05-16T18:52:01Z</time>
      </trkpt>
      <trkpt lat="48.00147" lon="6.94258">
        <ele>936</ele>
        <time>2017-05-16T18:54:01Z</time>
      </trkpt>
      <trkpt lat="48.00138" lon="6.94369">
        <ele>947</ele>
        <time>2017-05-16T18:56:01Z</time>
      </trkpt>
      <trkpt lat="48.00086" lon="6.94453">
        <ele>960</ele>
        <time>2017-05-16T18:58:01Z</time>
      </trkpt>
      <trkpt lat="48.00071" lon="6.94509">
        <ele>965</ele>
        <time>2017-05-16T19:00:01Z</time>
      </trkpt>
      <trkpt lat="48.00069" lon="6.9456">
        <ele>969</ele>
        <time>2017-05-16T19:02:01Z</time>
      </trkpt>
      <trkpt lat="48.00088" lon="6.94599">
        <ele>976</ele>
        <time>2017-05-16T19:04:01Z</time>
      </trkpt>
      <trkpt lat="48.00178" lon="6.94644">
        <ele>984</ele>
        <time>2017-05-16T19:06:01Z</time>
      </trkpt>
      <trkpt lat="48.00253" lon="6.94672">
        <ele>989</ele>
        <time>2017-05-16T19:08:01Z</time>
      </trkpt>
      <trkpt lat="48.00355" lon="6.947">
        <ele>998</ele>
        <time>2017-05-16T19:10:01Z</time>
      </trkpt>
      <trkpt lat="48.00438" lon="6.94622">
        <ele>970</ele>
        <time>2017-05-16T19:12:01Z</time>
      </trkpt>
      <trkpt lat="48.00518" lon="6.94631">
        <ele>970</ele>
        <time>2017-05-16T19:14:01Z</time>
      </trkpt>
      <trkpt lat="48.00577" lon="6.94676">
        <ele>978</ele>
        <time>2017-05-16T19:16:01Z</time>
      </trkpt>
      <trkpt lat="48.00645" lon="6.94682">
        <ele>965</ele>
        <time>2017-05-16T19:18:01Z</time>
      </trkpt>
      <trkpt lat="48.00704" lon="6.94715">
        <ele>963</ele>
        <time>2017-05-16T19:20:01Z</time>
      </trkpt>
      <trkpt lat="48.00797" lon="6.94755">
        <ele>955</ele>
        <time>2017-05-16T19:22:01Z</time>
      </trkpt>
      <trkpt lat="48.00836" lon="6.94755">
        <ele>946</ele>
        <time>2017-05-16T19:24:01Z</time>
      </trkpt>
      <trkpt lat="48.01015" lon="6.94856">
        <ele>933</ele>
        <time>2017-05-16T19:26:01Z</time>
      </trkpt>
      <trkpt lat="48.01067" lon="6.9488">
        <ele>925</ele>
        <time>2017-05-16T19:28:01Z</time>
      </trkpt>
      <trkpt lat="48.0105" lon="6.94983">
        <ele>934</ele>
        <time>2017-05-16T19:30:01Z</time>
      </trkpt>
      <trkpt lat="48.00978" lon="6.95097">
        <ele>961</ele>
        <time>2017-05-16T19:32:01Z</time>
      </trkpt>
      <trkpt lat="48.00958" lon="6.95228">
        <ele>966</ele>
        <time>2017-05-16T19:34:01Z</time>
      </trkpt>
      <trkpt lat="48.00971" lon="6.95369">
        <ele>971</ele>
        <time>2017-05-16T19:36:01Z</time>
      </trkpt>
      <trkpt lat="48.00984" lon="6.95498">
        <ele>977</ele>
        <time>2017-05-16T19:38:01Z</time>
      </trkpt>
      <trkpt lat="48.01024" lon="6.95652">
        <ele>982</ele>
        <time>2017-05-16T19:40:01Z</time>
      </trkpt>
      <trkpt lat="48.01057" lon="6.95674">
        <ele>989</ele>
        <time>2017-05-16T19:42:01Z</time>
      </trkpt>
      <trkpt lat="48.01144" lon="6.95599">
        <ele>1002</ele>
        <time>2017-05-16T19:44:01Z</time>
      </trkpt>
      <trkpt lat="48.01219" lon="6.95515">
        <ele>1006</ele>
        <time>2017-05-16T19:46:01Z</time>
      </trkpt>
      <trkpt lat="48.01298" lon="6.95509">
        <ele>1025</ele>
        <time>2017-05-16T19:48:01Z</time>
      </trkpt>
      <trkpt lat="48.01397" lon="6.95487">
        <ele>1037</ele>
        <time>2017-05-16T19:50:01Z</time>
      </trkpt>
      <trkpt lat="48.01487" lon="6.95556">
        <ele>1046</ele>
        <time>2017-05-16T19:52:01Z</time>
      </trkpt>
      <trkpt lat="48.01541" lon="6.95697">
        <ele>1055</ele>
        <time>2017-05-16T19:54:01Z</time>
      </trkpt>
      <trkpt lat="48.01564" lon="6.95811">
        <ele>1061</ele>
        <time>2017-05-16T19:56:01Z</time>
      </trkpt>
      <trkpt lat="48.01562" lon="6.95959">
        <ele>1072</ele>
        <time>2017-05-16T19:58:01Z</time>
      </trkpt>
      <trkpt lat="48.01556" lon="6.96088">
        <ele>1072</ele>
        <time>2017-05-16T20:00:01Z</time>
      </trkpt>
      <trkpt lat="48.0151" lon="6.96127">
        <ele>1084</ele>
        <time>2017-05-16T20:02:01Z</time>
      </trkpt>
      <trkpt lat="48.01485" lon="6.96225">
        <ele>1086</ele>
        <time>2017-05-16T20:04:01Z</time>
      </trkpt>
      <trkpt lat="48.0145" lon="6.96365">
        <ele>1094</ele>
        <time>2017-05-16T20:06:01Z</time>
      </trkpt>
      <trkpt lat="48.01409" lon="6.96483">
        <ele>1104</ele>
        <time>2017-05-16T20:08:01Z</time>
      </trkpt>
      <trkpt lat="48.01414" lon="6.96635">
        <ele>1109</ele>
        <time>2017-05-16T20:10:01Z</time>
      </trkpt>
      <trkpt lat="48.01442" lon="6.96809">
        <ele>1118</ele>
        <time>2017-05-16T20:12:01Z</time>
      </trkpt>
      <trkpt lat="48.01452" lon="6.9686">
        <ele>1121</ele>
        <time>2017-05-16T20:14:01Z</time>
      </trkpt>
      <trkpt lat="48.01525" lon="6.96978">
        <ele>1115</ele>
        <time>2017-05-16T20:16:01Z</time>
      </trkpt>
      <trkpt lat="48.01584" lon="6.97086">
        <ele>1107</ele>
        <time>2017-05-16T20:18:01Z</time>
      </trkpt>
      <trkpt lat="48.01618" lon="6.97169">
        <ele>1088</ele>
        <time>2017-05-16T20:20:01Z</time>
      </trkpt>
      <trkpt lat="48.01566" lon="6.97208">
        <ele>1100</ele>
        <time>2017-05-16T20:22:01Z</time>
      </trkpt>
      <trkpt lat="48.01513" lon="6.97296">
        <ele>1096</ele>
        <time>2017-05-16T20:24:01Z</time>
      </trkpt>
      <trkpt lat="48.01477" lon="6.97375">
        <ele>1087</ele>
        <time>2017-05-16T20:26:01Z</time>
      </trkpt>
      <trkpt lat="48.01407" lon="6.97448">
        <ele>1086</ele>
        <time>2017-05-16T20:28:01Z</time>
      </trkpt>
      <trkpt lat="48.01309" lon="6.97558">
        <ele>1085</ele>
        <time>2017-05-16T20:30:01Z</time>
      </trkpt>
      <trkpt lat="48.01259" lon="6.97674">
        <ele>1084</ele>
        <time>2017-05-16T20:32:01Z</time>
      </trkpt>
      <trkpt lat="48.01327" lon="6.9771">
        <ele>1067</ele>
        <time>2017-05-16T20:34:01Z</time>
      </trkpt>
      <trkpt lat="48.0137" lon="6.97704">
        <ele>1057</ele>
        <time>2017-05-16T20:36:01Z</time>
      </trkpt>
      <trkpt lat="48.01386" lon="6.97766">
        <ele>1054</ele>
        <time>2017-05-16T20:38:01Z</time>
      </trkpt>
      <trkpt lat="48.01394" lon="6.97817">
        <ele>1051</ele>
        <time>2017-05-16T20:40:01Z</time>
      </trkpt>
      <trkpt lat="48.01413" lon="6.9789">
        <ele>1050</ele>
        <time>2017-05-16T20:42:01Z</time>
      </trkpt>
      <trkpt lat="48.01433" lon="6.97938">
        <ele>1049</ele>
        <time>2017-05-16T20:44:01Z</time>
      </trkpt>
      <trkpt lat="48.01463" lon="6.97903">
        <ele>1038</ele>
        <time>2017-05-16T20:46:01Z</time>
      </trkpt>
      <trkpt lat="48.01487" lon="6.97912">
        <ele>1032</ele>
        <time>2017-05-16T20:48:01Z</time>
      </trkpt>
      <trkpt lat="48.01503" lon="6.97981">
        <ele>1031</ele>
        <time>2017-05-16T20:50:01Z</time>
      </trkpt>
      <trkpt lat="48.01519" lon="6.97991">
        <ele>1028</ele>
        <time>2017-05-16T20:52:01Z</time>
      </trkpt>
      <trkpt lat="48.01542" lon="6.98021">
        <ele>1028</ele>
        <time>2017-05-16T20:54:01Z</time>
      </trkpt>
      <trkpt lat="48.01565" lon="6.97983">
        <ele>1020</ele>
        <time>2017-05-16T20:56:01Z</time>
      </trkpt>
      <trkpt lat="48.01599" lon="6.98023">
        <ele>1018</ele>
        <time>2017-05-16T20:58:01Z</time>
      </trkpt>
      <trkpt lat="48.01617" lon="6.97996">
        <ele>1013</ele>
        <time>2017-05-16T21:00:01Z</time>
      </trkpt>
      <trkpt lat="48.01653" lon="6.97946">
        <ele>1001</ele>
        <time>2017-05-16T21:02:01Z</time>
      </trkpt>
      <trkpt lat="48.0172" lon="6.9797">
        <ele>999</ele>
        <time>2017-05-16T21:04:01Z</time>
      </trkpt>
      <trkpt lat="48.01775" lon="6.97931">
        <ele>995</ele>
        <time>2017-05-16T21:06:01Z</time>
      </trkpt>
      <trkpt lat="48.01813" lon="6.97839">
        <ele>997</ele>
        <time>2017-05-16T21:08:01Z</time>
      </trkpt>
      <trkpt lat="48.01853" lon="6.9782">
        <ele>1001</ele>
        <time>2017-05-16T21:10:01Z</time>
      </trkpt>
      <trkpt lat="48.01902" lon="6.97794">
        <ele>1004</ele>
        <time>2017-05-16T21:12:01Z</time>
      </trkpt>
      <trkpt lat="48.0192" lon="6.97736">
        <ele>1004</ele>
        <time>2017-05-16T21:14:01Z</time>
      </trkpt>
      <trkpt lat="48.01928" lon="6.97654">
        <ele>999</ele>
        <time>2017-05-16T21:16:01Z</time>
      </trkpt>
      <trkpt lat="48.01945" lon="6.97521">
        <ele>1001</ele>
        <time>2017-05-16T21:18:01Z</time>
      </trkpt>
      <trkpt lat="48.01975" lon="6.9747">
        <ele>1004</ele>
        <time>2017-05-16T21:20:01Z</time>
      </trkpt>
      <trkpt lat="48.01996" lon="6.97674">
        <ele>1014</ele>
        <time>2017-05-16T21:22:01Z</time>
      </trkpt>
      <trkpt lat="48.02047" lon="6.97491">
        <ele>1031</ele>
        <time>2017-05-16T21:24:01Z</time>
      </trkpt>
      <trkpt lat="48.02102" lon="6.97272">
        <ele>1044</ele>
        <time>2017-05-16T21:26:01Z</time>
      </trkpt>
      <trkpt lat="48.02159" lon="6.97105">
        <ele>1054</ele>
        <time>2017-05-16T21:28:01Z</time>
      </trkpt>
      <trkpt lat="48.02222" lon="6.97013">
        <ele>1052</ele>
        <time>2017-05-16T21:30:01Z</time>
      </trkpt>
      <trkpt lat="48.02285" lon="6.97026">
        <ele>1067</ele>
        <time>2017-05-16T21:32:01Z</time>
      </trkpt>
      <trkpt lat="48.02336" lon="6.97081">
        <ele>1089</ele>
        <time>2017-05-16T21:34:01Z</time>
      </trkpt>
      <trkpt lat="48.02407" lon="6.96996">
        <ele>1081</ele>
        <time>2017-05-16T21:36:01Z</time>
      </trkpt>
      <trkpt lat="48.02481" lon="6.96987">
        <ele>1084</ele>
        <time>2017-05-16T21:38:01Z</time>
      </trkpt>
      <trkpt lat="48.02593" lon="6.97094">
        <ele>1106</ele>
        <time>2017-05-16T21:40:01Z</time>
      </trkpt>
      <trkpt lat="48.02666" lon="6.97163">
        <ele>1122</ele>
        <time>2017-05-16T21:42:01Z</time>
      </trkpt>
      <trkpt lat="48.02715" lon="6.97146">
        <ele>1111</ele>
        <time>2017-05-16T21:44:01Z</time>
      </trkpt>
      <trkpt lat="48.02776" lon="6.97184">
        <ele>1118</ele>
        <time>2017-05-16T21:46:01Z</time>
      </trkpt>
      <trkpt lat="48.02819" lon="6.97223">
        <ele>1127</ele>
        <time>2017-05-16T21:48:01Z</time>
      </trkpt>
      <trkpt lat="48.0294" lon="6.97049">
        <ele>1110</ele>
        <time>2017-05-16T21:50:01Z</time>
      </trkpt>
      <trkpt lat="48.03003" lon="6.96963">
        <ele>1102</ele>
        <time>2017-05-16T21:52:01Z</time>
      </trkpt>
      <trkpt lat="48.0306" lon="6.96966">
        <ele>1099</ele>
        <time>2017-05-16T21:54:01Z</time>
      </trkpt>
      <trkpt lat="48.03118" lon="6.97028">
        <ele>1104</ele>
        <time>2017-05-16T21:56:01Z</time>
      </trkpt>
      <trkpt lat="48.03174" lon="6.97154">
        <ele>1118</ele>
        <time>2017-05-16T21:58:01Z</time>
      </trkpt>
      <trkpt lat="48.03197" lon="6.97262">
        <ele>1120</ele>
        <time>2017-05-16T22:00:01Z</time>
      </trkpt>
      <trkpt lat="48.03207" lon="6.97433">
        <ele>1114</ele>
        <time>2017-05-16T22:02:01Z</time>
      </trkpt>
      <trkpt lat="48.03243" lon="6.97614">
        <ele>1094</ele>
        <time>2017-05-16T22:04:01Z</time>
      </trkpt>
      <trkpt lat="48.03273" lon="6.97712">
        <ele>1082</ele>
        <time>2017-05-16T22:06:01Z</time>
      </trkpt>
      <trkpt lat="48.03214" lon="6.97878">
        <ele>1070</ele>
        <time>2017-05-16T22:08:01Z</time>
      </trkpt>
      <trkpt lat="48.03264" lon="6.97815">
        <ele>1071</ele>
        <time>2017-05-16T22:10:01Z</time>
      </trkpt>
      <trkpt lat="48.03323" lon="6.97792">
        <ele>1065</ele>
        <time>2017-05-16T22:12:01Z</time>
      </trkpt>
      <trkpt lat="48.03366" lon="6.9777">
        <ele>1062</ele>
        <time>2017-05-16T22:14:01Z</time>
      </trkpt>
      <trkpt lat="48.03431" lon="6.97852">
        <ele>1063</ele>
        <time>2017-05-16T22:16:01Z</time>
      </trkpt>
      <trkpt lat="48.034" lon="6.97908">
        <ele>1063</ele>
        <time>2017-05-16T22:18:01Z</time>
      </trkpt>
      <trkpt lat="48.03389" lon="6.97985">
        <ele>1066</ele>
        <time>2017-05-16T22:20:01Z</time>
      </trkpt>
      <trkpt lat="48.03372" lon="6.98105">
        <ele>1071</ele>
        <time>2017-05-16T22:22:01Z</time>
      </trkpt>
      <trkpt lat="48.03367" lon="6.98262">
        <ele>1084</ele>
        <time>2017-05-16T22:24:01Z</time>
      </trkpt>
      <trkpt lat="48.03297" lon="6.98457">
        <ele>1098</ele>
        <time>2017-05-16T22:26:01Z</time>
      </trkpt>
      <trkpt lat="48.03207" lon="6.98644">
        <ele>1107</ele>
        <time>2017-05-16T22:28:01Z</time>
      </trkpt>
      <trkpt lat="48.03157" lon="6.988">
        <ele>1117</ele>
        <time>2017-05-16T22:30:01Z</time>
      </trkpt>
      <trkpt lat="48.03118" lon="6.98895">
        <ele>1119</ele>
        <time>2017-05-16T22:32:01Z</time>
      </trkpt>
      <trkpt lat="48.03118" lon="6.98955">
        <ele>1130</ele>
        <time>2017-05-16T22:34:01Z</time>
      </trkpt>
      <trkpt lat="48.03078" lon="6.98978">
        <ele>1128</ele>
        <time>2017-05-16T22:36:01Z</time>
      </trkpt>
      <trkpt lat="48.03017" lon="6.99036">
        <ele>1131</ele>
        <time>2017-05-16T22:38:01Z</time>
      </trkpt>
      <trkpt lat="48.02961" lon="6.99092">
        <ele>1132</ele>
        <time>2017-05-16T22:40:01Z</time>
      </trkpt>
      <trkpt lat="48.0297" lon="6.99174">
        <ele>1143</ele>
        <time>2017-05-16T22:42:01Z</time>
      </trkpt>
      <trkpt lat="48.0299" lon="6.99283">
        <ele>1154</ele>
        <time>2017-05-16T22:44:01Z</time>
      </trkpt>
      <trkpt lat="48.02981" lon="6.9938">
        <ele>1164</ele>
        <time>2017-05-16T22:46:01Z</time>
      </trkpt>
      <trkpt lat="48.02971" lon="6.9948">
        <ele>1176</ele>
        <time>2017-05-16T22:48:01Z</time>
      </trkpt>
      <trkpt lat="48.02974" lon="6.99704">
        <ele>1194</ele>
        <time>2017-05-16T22:50:01Z</time>
      </trkpt>
      <trkpt lat="48.02994" lon="6.99907">
        <ele>1201</ele>
        <time>2017-05-16T22:52:01Z</time>
      </trkpt>
      <trkpt lat="48.03017" lon="6.99714">
        <ele>1203</ele>
        <time>2017-05-16T22:54:01Z</time>
      </trkpt>
      <trkpt lat="48.03058" lon="6.9951">
        <ele>1200</ele>
        <time>2017-05-16T22:56:01Z</time>
      </trkpt>
      <trkpt lat="48.03105" lon="6.9939">
        <ele>1195</ele>
        <time>2017-05-16T22:58:01Z</time>
      </trkpt>
      <trkpt lat="48.03151" lon="6.99395">
        <ele>1199</ele>
        <time>2017-05-16T23:00:01Z</time>
      </trkpt>
      <trkpt lat="48.0333" lon="6.99487">
        <ele>1213</ele>
        <time>2017-05-16T23:02:01Z</time>
      </trkpt>
      <trkpt lat="48.03372" lon="6.99592">
        <ele>1220</ele>
        <time>2017-05-16T23:04:01Z</time>
      </trkpt>
      <trkpt lat="48.03425" lon="6.99871">
        <ele>1232</ele>
        <time>2017-05-16T23:06:01Z</time>
      </trkpt>
      <trkpt lat="48.03426" lon="6.9995">
        <ele>1232</ele>
        <time>2017-05-16T23:08:01Z</time>
      </trkpt>
      <trkpt lat="48.03406" lon="6.99991">
        <ele>1237</ele>
        <time>2017-05-16T23:10:01Z</time>
      </trkpt>
      <trkpt lat="48.03422" lon="7.00083">
        <ele>1238</ele>
        <time>2017-05-16T23:12:01Z</time>
      </trkpt>
      <trkpt lat="48.03421" lon="7.00204">
        <ele>1241</ele>
        <time>2017-05-16T23:14:01Z</time>
      </trkpt>
      <trkpt lat="48.03442" lon="7.00416">
        <ele>1245</ele>
        <time>2017-05-16T23:16:01Z</time>
      </trkpt>
      <trkpt lat="48.03475" lon="7.00598">
        <ele>1250</ele>
        <time>2017-05-16T23:18:01Z</time>
      </trkpt>
      <trkpt lat="48.03587" lon="7.00798">
        <ele>1246</ele>
        <time>2017-05-16T23:20:01Z</time>
      </trkpt>
      <trkpt lat="48.03697" lon="7.00794">
        <ele>1241</ele>
        <time>2017-05-16T23:22:01Z</time>
      </trkpt>
      <trkpt lat="48.03883" lon="7.00804">
        <ele>1239</ele>
        <time>2017-05-16T23:24:01Z</time>
      </trkpt>
      <trkpt lat="48.03967" lon="7.00768">
        <ele>1240</ele>
        <time>2017-05-16T23:26:01Z</time>
      </trkpt>
      <trkpt lat="48.04055" lon="7.00596">
        <ele>1237</ele>
        <time>2017-05-16T23:28:01Z</time>
      </trkpt>
      <trkpt lat="48.04115" lon="7.00523">
        <ele>1237</ele>
        <time>2017-05-16T23:30:01Z</time>
      </trkpt>
      <trkpt lat="48.0421" lon="7.00367">
        <ele>1216</ele>
        <time>2017-05-16T23:32:01Z</time>
      </trkpt>
      <trkpt lat="48.04297" lon="7.003">
        <ele>1197</ele>
        <time>2017-05-16T23:34:01Z</time>
      </trkpt>
      <trkpt lat="48.04301" lon="7.00231">
        <ele>1184</ele>
        <time>2017-05-16T23:36:01Z</time>
      </trkpt>
      <trkpt lat="48.04329" lon="7.00251">
        <ele>1184</ele>
        <time>2017-05-16T23:38:01Z</time>
      </trkpt>
      <trkpt lat="48.04337" lon="7.00221">
        <ele>1177</ele>
        <time>2017-05-16T23:40:01Z</time>
      </trkpt>
      <trkpt lat="48.04336" lon="7.00165">
        <ele>1170</ele>
        <time>2017-05-16T23:42:01Z</time>
      </trkpt>
      <trkpt lat="48.04307" lon="7.00083">
        <ele>1162</ele>
        <time>2017-05-16T23:44:01Z</time>
      </trkpt>
      <trkpt lat="48.04294" lon="7">
        <ele>1143</ele>
        <time>2017-05-16T23:46:01Z</time>
      </trkpt>
      <trkpt lat="48.04339" lon="7.00077">
        <ele>1157</ele>
        <time>2017-05-16T23:48:01Z</time>
      </trkpt>
      <trkpt lat="48.04327" lon="7.00013">
        <ele>1143</ele>
        <time>2017-05-16T23:50:01Z</time>
      </trkpt>
      <trkpt lat="48.04284" lon="6.99944">
        <ele>1128</ele>
        <time>2017-05-16T23:52:01Z</time>
      </trkpt>
      <trkpt lat="48.0422" lon="6.9994">
        <ele>1130</ele>
        <time>2017-05-16T23:54:01Z</time>
      </trkpt>
      <trkpt lat="48.04139" lon="6.99937">
        <ele>1124</ele>
        <time>2017-05-16T23:56:01Z</time>
      </trkpt>
      <trkpt lat="48.04126" lon="6.99886">
        <ele>1117</ele>
        <time>2017-05-16T23:58:01Z</time>
      </trkpt>
      <trkpt lat="48.04108" lon="6.99845">
        <ele>1112</ele>
        <time>2017-05-17T00:00:01Z</time>
      </trkpt>
      <trkpt lat="48.04119" lon="6.99772">
        <ele>1118</ele>
        <time>2017-05-17T00:02:01Z</time>
      </trkpt>
      <trkpt lat="48.04091" lon="6.99729">
        <ele>1115</ele>
        <time>2017-05-17T00:04:01Z</time>
      </trkpt>
      <trkpt lat="48.04135" lon="6.99695">
        <ele>1129</ele>
        <time>2017-05-17T00:06:01Z</time>
      </trkpt>
      <trkpt lat="48.04105" lon="6.99635">
        <ele>1124</ele>
        <time>2017-05-17T00:08:01Z</time>
      </trkpt>
      <trkpt lat="48.04083" lon="6.99517">
        <ele>1124</ele>
        <time>2017-05-17T00:10:01Z</time>
      </trkpt>
      <trkpt lat="48.04093" lon="6.99446">
        <ele>1129</ele>
        <time>2017-05-17T00:12:01Z</time>
      </trkpt>
      <trkpt lat="48.04096" lon="6.99317">
        <ele>1129</ele>
        <time>2017-05-17T00:14:01Z</time>
      </trkpt>
      <trkpt lat="48.04096" lon="6.99186">
        <ele>1124</ele>
        <time>2017-05-17T00:16:01Z</time>
      </trkpt>
      <trkpt lat="48.04108" lon="6.99047">
        <ele>1125</ele>
        <time>2017-05-17T00:18:01Z</time>
      </trkpt>
      <trkpt lat="48.04039" lon="6.98993">
        <ele>1114</ele>
        <time>2017-05-17T00:20:01Z</time>
      </trkpt>
      <trkpt lat="48.03993" lon="6.98897">
        <ele>1113</ele>
        <time>2017-05-17T00:22:01Z</time>
      </trkpt>
      <trkpt lat="48.03979" lon="6.98736">
        <ele>1111</ele>
        <time>2017-05-17T00:24:01Z</time>
      </trkpt>
      <trkpt lat="48.03982" lon="6.98528">
        <ele>1108</ele>
        <time>2017-05-17T00:26:01Z</time>
      </trkpt>
      <trkpt lat="48.03986" lon="6.983">
        <ele>1093</ele>
        <time>2017-05-17T00:28:01Z</time>
      </trkpt>
      <trkpt lat="48.03993" lon="6.98169">
        <ele>1083</ele>
        <time>2017-05-17T00:30:01Z</time>
      </trkpt>
      <trkpt lat="48.04009" lon="6.97981">
        <ele>1070</ele>
        <time>2017-05-17T00:32:01Z</time>
      </trkpt>
      <trkpt lat="48.04052" lon="6.97832">
        <ele>1059</ele>
        <time>2017-05-17T00:34:01Z</time>
      </trkpt>
      <trkpt lat="48.04125" lon="6.97811">
        <ele>1057</ele>
        <time>2017-05-17T00:36:01Z</time>
      </trkpt>
      <trkpt lat="48.04276" lon="6.97863">
        <ele>1063</ele>
        <time>2017-05-17T00:38:01Z</time>
      </trkpt>
      <trkpt lat="48.04428" lon="6.97852">
        <ele>1040</ele>
        <time>2017-05-17T00:40:01Z</time>
      </trkpt>
      <trkpt lat="48.04643" lon="6.97837">
        <ele>1019</ele>
        <time>2017-05-17T00:42:01Z</time>
      </trkpt>
      <trkpt lat="48.0457" lon="6.97781">
        <ele>1008</ele>
        <time>2017-05-17T00:44:01Z</time>
      </trkpt>
      <trkpt lat="48.04627" lon="6.97736">
        <ele>994</ele>
        <time>2017-05-17T00:46:01Z</time>
      </trkpt>
      <trkpt lat="48.04663" lon="6.97684">
        <ele>980</ele>
        <time>2017-05-17T00:48:01Z</time>
      </trkpt>
      <trkpt lat="48.04702" lon="6.97657">
        <ele>973</ele>
        <time>2017-05-17T00:50:01Z</time>
      </trkpt>
      <trkpt lat="48.04738" lon="6.97672">
        <ele>975</ele>
        <time>2017-05-17T00:52:01Z</time>
      </trkpt>
      <trkpt lat="48.04759" lon="6.97635">
        <ele>967</ele>
        <time>2017-05-17T00:54:01Z</time>
      </trkpt>
      <trkpt lat="48.04718" lon="6.97584">
        <ele>958</ele>
        <time>2017-05-17T00:56:01Z</time>
      </trkpt>
      <trkpt lat="48.04776" lon="6.97545">
        <ele>959</ele>
        <time>2017-05-17T00:58:01Z</time>
      </trkpt>
      <trkpt lat="48.04785" lon="6.97435">
        <ele>963</ele>
        <time>2017-05-17T01:00:01Z</time>
      </trkpt>
      <trkpt lat="48.04785" lon="6.97352">
        <ele>973</ele>
        <time>2017-05-17T01:02:01Z</time>
      </trkpt>
      <trkpt lat="48.04735" lon="6.97251">
        <ele>976</ele>
        <time>2017-05-17T01:04:01Z</time>
      </trkpt>
      <trkpt lat="48.04723" lon="6.97159">
        <ele>981</ele>
        <time>2017-05-17T01:06:01Z</time>
      </trkpt>
      <trkpt lat="48.04732" lon="6.97051">
        <ele>988</ele>
        <time>2017-05-17T01:08:01Z</time>
      </trkpt>
      <trkpt lat="48.04706" lon="6.96897">
        <ele>996</ele>
        <time>2017-05-17T01:10:01Z</time>
      </trkpt>
      <trkpt lat="48.04742" lon="6.96785">
        <ele>997</ele>
        <time>2017-05-17T01:12:01Z</time>
      </trkpt>
      <trkpt lat="48.04748" lon="6.96843">
        <ele>997</ele>
        <time>2017-05-17T01:14:01Z</time>
      </trkpt>
      <trkpt lat="48.04806" lon="6.96869">
        <ele>1006</ele>
        <time>2017-05-17T01:16:01Z</time>
      </trkpt>
      <trkpt lat="48.04837" lon="6.96811">
        <ele>1008</ele>
        <time>2017-05-17T01:18:01Z</time>
      </trkpt>
      <trkpt lat="48.04867" lon="6.96697">
        <ele>1011</ele>
        <time>2017-05-17T01:20:01Z</time>
      </trkpt>
      <trkpt lat="48.04908" lon="6.9659">
        <ele>1015</ele>
        <time>2017-05-17T01:22:01Z</time>
      </trkpt>
      <trkpt lat="48.04941" lon="6.96551">
        <ele>1020</ele>
        <time>2017-05-17T01:24:01Z</time>
      </trkpt>
      <trkpt lat="48.05016" lon="6.96468">
        <ele>1030</ele>
        <time>2017-05-17T01:26:01Z</time>
      </trkpt>
      <trkpt lat="48.05046" lon="6.96431">
        <ele>1037</ele>
        <time>2017-05-17T01:28:01Z</time>
      </trkpt>
      <trkpt lat="48.05075" lon="6.96315">
        <ele>1044</ele>
        <time>2017-05-17T01:30:01Z</time>
      </trkpt>
      <trkpt lat="48.05075" lon="6.96202">
        <ele>1045</ele>
        <time>2017-05-17T01:32:01Z</time>
      </trkpt>
      <trkpt lat="48.05108" lon="6.96082">
        <ele>1056</ele>
        <time>2017-05-17T01:34:01Z</time>
      </trkpt>
      <trkpt lat="48.05156" lon="6.9594">
        <ele>1061</ele>
        <time>2017-05-17T01:36:01Z</time>
      </trkpt>
      <trkpt lat="48.05208" lon="6.95824">
        <ele>1063</ele>
        <time>2017-05-17T01:38:01Z</time>
      </trkpt>
      <trkpt lat="48.0523" lon="6.95826">
        <ele>1066</ele>
        <time>2017-05-17T01:40:01Z</time>
      </trkpt>
      <trkpt lat="48.0529" lon="6.9582">
        <ele>1068</ele>
        <time>2017-05-17T01:42:01Z</time>
      </trkpt>
      <trkpt lat="48.05328" lon="6.9583">
        <ele>1067</ele>
        <time>2017-05-17T01:44:01Z</time>
      </trkpt>
      <trkpt lat="48.05373" lon="6.9583">
        <ele>1069</ele>
        <time>2017-05-17T01:46:01Z</time>
      </trkpt>
      <trkpt lat="48.05425" lon="6.9583">
        <ele>1070</ele>
        <time>2017-05-17T01:48:01Z</time>
      </trkpt>
      <trkpt lat="48.05448" lon="6.958">
        <ele>1073</ele>
        <time>2017-05-17T01:50:01Z</time>
      </trkpt>
      <trkpt lat="48.05461" lon="6.95773">
        <ele>1075</ele>
        <time>2017-05-17T01:52:01Z</time>
      </trkpt>
      <trkpt lat="48.05479" lon="6.95754">
        <ele>1077</ele>
        <time>2017-05-17T01:54:01Z</time>
      </trkpt>
      <trkpt lat="48.05488" lon="6.95728">
        <ele>1079</ele>
        <time>2017-05-17T01:56:01Z</time>
      </trkpt>
      <trkpt lat="48.05486" lon="6.95679">
        <ele>1084</ele>
        <time>2017-05-17T01:58:01Z</time>
      </trkpt>
      <trkpt lat="48.05486" lon="6.95634">
        <ele>1086</ele>
        <time>2017-05-17T02:00:01Z</time>
      </trkpt>
      <trkpt lat="48.05514" lon="6.95604">
        <ele>1087</ele>
        <time>2017-05-17T02:02:01Z</time>
      </trkpt>
      <trkpt lat="48.05549" lon="6.95607">
        <ele>1084</ele>
        <time>2017-05-17T02:04:01Z</time>
      </trkpt>
      <trkpt lat="48.05624" lon="6.95629">
        <ele>1078</ele>
        <time>2017-05-17T02:06:01Z</time>
      </trkpt>
      <trkpt lat="48.05651" lon="6.95541">
        <ele>1081</ele>
        <time>2017-05-17T02:08:01Z</time>
      </trkpt>
      <trkpt lat="48.05689" lon="6.95466">
        <ele>1076</ele>
        <time>2017-05-17T02:10:01Z</time>
      </trkpt>
      <trkpt lat="48.05727" lon="6.95391">
        <ele>1065</ele>
        <time>2017-05-17T02:12:01Z</time>
      </trkpt>
      <trkpt lat="48.05759" lon="6.95307">
        <ele>1051</ele>
        <time>2017-05-17T02:14:01Z</time>
      </trkpt>
      <trkpt lat="48.05736" lon="6.95176">
        <ele>1043</ele>
        <time>2017-05-17T02:16:01Z</time>
      </trkpt>
      <trkpt lat="48.05732" lon="6.95131">
        <ele>1040</ele>
        <time>2017-05-17T02:18:01Z</time>
      </trkpt>
      <trkpt lat="48.05742" lon="6.95028">
        <ele>1030</ele>
        <time>2017-05-17T02:20:01Z</time>
      </trkpt>
      <trkpt lat="48.0571" lon="6.94957">
        <ele>1030</ele>
        <time>2017-05-17T02:22:01Z</time>
      </trkpt>
      <trkpt lat="48.05691" lon="6.9488">
        <ele>1020</ele>
        <time>2017-05-17T02:24:01Z</time>
      </trkpt>
      <trkpt lat="48.05671" lon="6.94811">
        <ele>1011</ele>
        <time>2017-05-17T02:26:01Z</time>
      </trkpt>
      <trkpt lat="48.05679" lon="6.94773">
        <ele>1008</ele>
        <time>2017-05-17T02:28:01Z</time>
      </trkpt>
      <trkpt lat="48.0566" lon="6.94717">
        <ele>996</ele>
        <time>2017-05-17T02:30:01Z</time>
      </trkpt>
      <trkpt lat="48.05683" lon="6.94586">
        <ele>972</ele>
        <time>2017-05-17T02:32:01Z</time>
      </trkpt>
      <trkpt lat="48.05714" lon="6.94479">
        <ele>953</ele>
        <time>2017-05-17T02:34:01Z</time>
      </trkpt>
      <trkpt lat="48.05699" lon="6.9429">
        <ele>947</ele>
        <time>2017-05-17T02:36:01Z</time>
      </trkpt>
      <trkpt lat="48.05595" lon="6.94215">
        <ele>950</ele>
        <time>2017-05-17T02:38:01Z</time>
      </trkpt>
      <trkpt lat="48.05515" lon="6.94067">
        <ele>965</ele>
        <time>2017-05-17T02:40:01Z</time>
      </trkpt>
      <trkpt lat="48.05419" lon="6.93923">
        <ele>960</ele>
        <time>2017-05-17T02:42:01Z</time>
      </trkpt>
      <trkpt lat="48.05333" lon="6.93809">
        <ele>951</ele>
        <time>2017-05-17T02:44:01Z</time>
      </trkpt>
      <trkpt lat="48.0529" lon="6.93687">
        <ele>956</ele>
        <time>2017-05-17T02:46:01Z</time>
      </trkpt>
      <trkpt lat="48.05248" lon="6.93642">
        <ele>954</ele>
        <time>2017-05-17T02:48:01Z</time>
      </trkpt>
      <trkpt lat="48.05224" lon="6.93519">
        <ele>962</ele>
        <time>2017-05-17T02:50:01Z</time>
      </trkpt>
      <trkpt lat="48.05204" lon="6.93346">
        <ele>964</ele>
        <time>2017-05-17T02:52:01Z</time>
      </trkpt>
      <trkpt lat="48.05202" lon="6.93249">
        <ele>964</ele>
        <time>2017-05-17T02:54:01Z</time>
      </trkpt>
      <trkpt lat="48.05192" lon="6.93153">
        <ele>967</ele>
        <time>2017-05-17T02:56:01Z</time>
      </trkpt>
      <trkpt lat="48.05111" lon="6.93028">
        <ele>965</ele>
        <time>2017-05-17T02:58:01Z</time>
      </trkpt>
      <trkpt lat="48.04991" lon="6.92848">
        <ele>975</ele>
        <time>2017-05-17T03:00:01Z</time>
      </trkpt>
      <trkpt lat="48.04835" lon="6.92756">
        <ele>976</ele>
        <time>2017-05-17T03:02:01Z</time>
      </trkpt>
      <trkpt lat="48.04798" lon="6.92734">
        <ele>978</ele>
        <time>2017-05-17T03:04:01Z</time>
      </trkpt>
      <trkpt lat="48.04815" lon="6.92721">
        <ele>980</ele>
        <time>2017-05-17T03:06:01Z</time>
      </trkpt>
      <trkpt lat="48.04814" lon="6.92665">
        <ele>986</ele>
        <time>2017-05-17T03:08:01Z</time>
      </trkpt>
      <trkpt lat="48.04827" lon="6.92595">
        <ele>1002</ele>
        <time>2017-05-17T03:10:01Z</time>
      </trkpt>
      <trkpt lat="48.04808" lon="6.9247">
        <ele>1016</ele>
        <time>2017-05-17T03:12:01Z</time>
      </trkpt>
      <trkpt lat="48.04781" lon="6.92356">
        <ele>1025</ele>
        <time>2017-05-17T03:14:01Z</time>
      </trkpt>
      <trkpt lat="48.04771" lon="6.92277">
        <ele>1036</ele>
        <time>2017-05-17T03:16:01Z</time>
      </trkpt>
      <trkpt lat="48.04776" lon="6.92181">
        <ele>1054</ele>
        <time>2017-05-17T03:18:01Z</time>
      </trkpt>
      <trkpt lat="48.04809" lon="6.92129">
        <ele>1062</ele>
        <time>2017-05-17T03:20:01Z</time>
      </trkpt>
      <trkpt lat="48.04829" lon="6.9208">
        <ele>1065</ele>
        <time>2017-05-17T03:22:01Z</time>
      </trkpt>
      <trkpt lat="48.04794" lon="6.92022">
        <ele>1071</ele>
        <time>2017-05-17T03:24:01Z</time>
      </trkpt>
      <trkpt lat="48.04795" lon="6.9196">
        <ele>1076</ele>
        <time>2017-05-17T03:26:01Z</time>
      </trkpt>
      <trkpt lat="48.04772" lon="6.9194">
        <ele>1082</ele>
        <time>2017-05-17T03:28:01Z</time>
      </trkpt>
      <trkpt lat="48.04735" lon="6.91934">
        <ele>1090</ele>
        <time>2017-05-17T03:30:01Z</time>
      </trkpt>
      <trkpt lat="48.04683" lon="6.91934">
        <ele>1099</ele>
        <time>2017-05-17T03:32:01Z</time>
      </trkpt>
      <trkpt lat="48.04647" lon="6.91938">
        <ele>1103</ele>
        <time>2017-05-17T03:34:01Z</time>
      </trkpt>
      <trkpt lat="48.0461" lon="6.91949">
        <ele>1103</ele>
        <time>2017-05-17T03:36:01Z</time>
      </trkpt>
      <trkpt lat="48.04554" lon="6.91923">
        <ele>1115</ele>
        <time>2017-05-17T03:38:01Z</time>
      </trkpt>
      <trkpt lat="48.04575" lon="6.91884">
        <ele>1120</ele>
        <time>2017-05-17T03:40:01Z</time>
      </trkpt>
      <trkpt lat="48.04587" lon="6.91839">
        <ele>1125</ele>
        <time>2017-05-17T03:42:01Z</time>
      </trkpt>
      <trkpt lat="48.04608" lon="6.91799">
        <ele>1124</ele>
        <time>2017-05-17T03:44:01Z</time>
      </trkpt>
      <trkpt lat="48.04575" lon="6.91706">
        <ele>1125</ele>
        <time>2017-05-17T03:46:01Z</time>
      </trkpt>
      <trkpt lat="48.04522" lon="6.91717">
        <ele>1123</ele>
        <time>2017-05-17T03:48:01Z</time>
      </trkpt>
      <trkpt lat="48.04488" lon="6.91734">
        <ele>1121</ele>
        <time>2017-05-17T03:50:01Z</time>
      </trkpt>
      <trkpt lat="48.04435" lon="6.91706">
        <ele>1115</ele>
        <time>2017-05-17T03:52:01Z</time>
      </trkpt>
      <trkpt lat="48.04376" lon="6.9167">
        <ele>1107</ele>
        <time>2017-05-17T03:54:01Z</time>
      </trkpt>
      <trkpt lat="48.04337" lon="6.91648">
        <ele>1100</ele>
        <time>2017-05-17T03:56:01Z</time>
      </trkpt>
      <trkpt lat="48.04314" lon="6.91541">
        <ele>1087</ele>
        <time>2017-05-17T03:58:01Z</time>
      </trkpt>
      <trkpt lat="48.04198" lon="6.91408">
        <ele>1067</ele>
        <time>2017-05-17T04:00:01Z</time>
      </trkpt>
      <trkpt lat="48.04155" lon="6.91305">
        <ele>1056</ele>
        <time>2017-05-17T04:02:01Z</time>
      </trkpt>
      <trkpt lat="48.04115" lon="6.91438">
        <ele>1059</ele>
        <time>2017-05-17T04:04:01Z</time>
      </trkpt>
      <trkpt lat="48.04069" lon="6.91556">
        <ele>1062</ele>
        <time>2017-05-17T04:06:01Z</time>
      </trkpt>
      <trkpt lat="48.03999" lon="6.91614">
        <ele>1061</ele>
        <time>2017-05-17T04:08:01Z</time>
      </trkpt>
      <trkpt lat="48.03926" lon="6.91586">
        <ele>1058</ele>
        <time>2017-05-17T04:10:01Z</time>
      </trkpt>
      <trkpt lat="48.03847" lon="6.9152">
        <ele>1056</ele>
        <time>2017-05-17T04:12:01Z</time>
      </trkpt>
      <trkpt lat="48.03825" lon="6.91453">
        <ele>1060</ele>
        <time>2017-05-17T04:14:01Z</time>
      </trkpt>
      <trkpt lat="48.03812" lon="6.91399">
        <ele>1060</ele>
        <time>2017-05-17T04:16:01Z</time>
      </trkpt>
      <trkpt lat="48.03766" lon="6.91359">
        <ele>1055</ele>
        <time>2017-05-17T04:18:01Z</time>
      </trkpt>
      <trkpt lat="48.03693" lon="6.91232">
        <ele>1060</ele>
        <time>2017-05-17T04:20:01Z</time>
      </trkpt>
      <trkpt lat="48.03594" lon="6.91187">
        <ele>1057</ele>
        <time>2017-05-17T04:22:01Z</time>
      </trkpt>
      <trkpt lat="48.0352" lon="6.91114">
        <ele>1053</ele>
        <time>2017-05-17T04:24:01Z</time>
      </trkpt>
      <trkpt lat="48.03456" lon="6.9103">
        <ele>1052</ele>
        <time>2017-05-17T04:26:01Z</time>
      </trkpt>
      <trkpt lat="48.03419" lon="6.90977">
        <ele>1053</ele>
        <time>2017-05-17T04:28:01Z</time>
      </trkpt>
      <trkpt lat="48.03412" lon="6.90915">
        <ele>1054</ele>
        <time>2017-05-17T04:30:01Z</time>
      </trkpt>
      <trkpt lat="48.03383" lon="6.90734">
        <ele>1057</ele>
        <time>2017-05-17T04:32:01Z</time>
      </trkpt>
      <trkpt lat="48.03357" lon="6.90621">
        <ele>1065</ele>
        <time>2017-05-17T04:34:01Z</time>
      </trkpt>
      <trkpt lat="48.03373" lon="6.90462">
        <ele>1076</ele>
        <time>2017-05-17T04:36:01Z</time>
      </trkpt>
      <trkpt lat="48.03362" lon="6.90361">
        <ele>1074</ele>
        <time>2017-05-17T04:38:01Z</time>
      </trkpt>
      <trkpt lat="48.03378" lon="6.90282">
        <ele>1073</ele>
        <time>2017-05-17T04:40:01Z</time>
      </trkpt>
      <trkpt lat="48.03392" lon="6.90196">
        <ele>1069</ele>
        <time>2017-05-17T04:42:01Z</time>
      </trkpt>
      <trkpt lat="48.03419" lon="6.90189">
        <ele>1073</ele>
        <time>2017-05-17T04:44:01Z</time>
      </trkpt>
      <trkpt lat="48.03433" lon="6.90088">
        <ele>1066</ele>
        <time>2017-05-17T04:46:01Z</time>
      </trkpt>
      <trkpt lat="48.03464" lon="6.89964">
        <ele>1056</ele>
        <time>2017-05-17T04:48:01Z</time>
      </trkpt>
      <trkpt lat="48.03494" lon="6.89878">
        <ele>1054</ele>
        <time>2017-05-17T04:50:01Z</time>
      </trkpt>
      <trkpt lat="48.03468" lon="6.8985">
        <ele>1054</ele>
        <time>2017-05-17T04:52:01Z</time>
      </trkpt>
      <trkpt lat="48.03409" lon="6.89842">
        <ele>1053</ele>
        <time>2017-05-17T04:54:01Z</time>
      </trkpt>
      <trkpt lat="48.03357" lon="6.89812">
        <ele>1050</ele>
        <time>2017-05-17T04:56:01Z</time>
      </trkpt>
      <trkpt lat="48.03273" lon="6.89691">
        <ele>1040</ele>
        <time>2017-05-17T04:58:01Z</time>
      </trkpt>
      <trkpt lat="48.03214" lon="6.89664">
        <ele>1032</ele>
        <time>2017-05-17T05:00:01Z</time>
      </trkpt>
      <trkpt lat="48.03091" lon="6.89492">
        <ele>1020</ele>
        <time>2017-05-17T05:02:01Z</time>
      </trkpt>
      <trkpt lat="48.0302" lon="6.8934">
        <ele>1013</ele>
        <time>2017-05-17T05:04:01Z</time>
      </trkpt>
      <trkpt lat="48.02914" lon="6.89286">
        <ele>994</ele>
        <time>2017-05-17T05:06:01Z</time>
      </trkpt>
      <trkpt lat="48.02835" lon="6.89127">
        <ele>986</ele>
        <time>2017-05-17T05:08:01Z</time>
      </trkpt>
      <trkpt lat="48.02762" lon="6.88947">
        <ele>971</ele>
        <time>2017-05-17T05:10:01Z</time>
      </trkpt>
      <trkpt lat="48.02735" lon="6.88863">
        <ele>968</ele>
        <time>2017-05-17T05:12:01Z</time>
      </trkpt>
      <trkpt lat="48.02717" lon="6.88762">
        <ele>970</ele>
        <time>2017-05-17T05:14:01Z</time>
      </trkpt>
      <trkpt lat="48.0264" lon="6.88676">
        <ele>957</ele>
        <time>2017-05-17T05:16:01Z</time>
      </trkpt>
      <trkpt lat="48.02606" lon="6.88679">
        <ele>950</ele>
        <time>2017-05-17T05:18:01Z</time>
      </trkpt>
      <trkpt lat="48.0255" lon="6.88486">
        <ele>956</ele>
        <time>2017-05-17T05:20:01Z</time>
      </trkpt>
      <trkpt lat="48.02525" lon="6.88438">
        <ele>958</ele>
        <time>2017-05-17T05:22:01Z</time>
      </trkpt>
      <trkpt lat="48.02429" lon="6.88432">
        <ele>954</ele>
        <time>2017-05-17T05:24:01Z</time>
      </trkpt>
      <trkpt lat="48.0237" lon="6.88383">
        <ele>955</ele>
        <time>2017-05-17T05:26:01Z</time>
      </trkpt>
      <trkpt lat="48.02306" lon="6.88402">
        <ele>952</ele>
        <time>2017-05-17T05:28:01Z</time>
      </trkpt>
      <trkpt lat="48.02198" lon="6.88346">
        <ele>950</ele>
        <time>2017-05-17T05:30:01Z</time>
      </trkpt>
      <trkpt lat="48.02258" lon="6.88421">
        <ele>944</ele>
        <time>2017-05-17T05:32:01Z</time>
      </trkpt>
      <trkpt lat="48.02196" lon="6.88393">
        <ele>938</ele>
        <time>2017-05-17T05:34:01Z</time>
      </trkpt>
      <trkpt lat="48.02129" lon="6.88335">
        <ele>942</ele>
        <time>2017-05-17T05:36:01Z</time>
      </trkpt>
      <trkpt lat="48.02056" lon="6.88295">
        <ele>941</ele>
        <time>2017-05-17T05:38:01Z</time>
      </trkpt>
      <trkpt lat="48.01971" lon="6.88215">
        <ele>937</ele>
        <time>2017-05-17T05:40:01Z</time>
      </trkpt>
      <trkpt lat="48.01908" lon="6.88074">
        <ele>947</ele>
        <time>2017-05-17T05:42:01Z</time>
      </trkpt>
      <trkpt lat="48.01858" lon="6.87971">
        <ele>948</ele>
        <time>2017-05-17T05:44:01Z</time>
      </trkpt>
      <trkpt lat="48.01846" lon="6.87898">
        <ele>957</ele>
        <time>2017-05-17T05:46:01Z</time>
      </trkpt>
      <trkpt lat="48.01809" lon="6.87835">
        <ele>953</ele>
        <time>2017-05-17T05:48:01Z</time>
      </trkpt>
      <trkpt lat="48.01779" lon="6.87702">
        <ele>955</ele>
        <time>2017-05-17T05:50:01Z</time>
      </trkpt>
      <trkpt lat="48.01756" lon="6.87601">
        <ele>958</ele>
        <time>2017-05-17T05:52:01Z</time>
      </trkpt>
      <trkpt lat="48.01711" lon="6.87537">
        <ele>954</ele>
        <time>2017-05-17T05:54:01Z</time>
      </trkpt>
      <trkpt lat="48.01706" lon="6.87466">
        <ele>960</ele>
        <time>2017-05-17T05:56:01Z</time>
      </trkpt>
      <trkpt lat="48.01744" lon="6.874">
        <ele>971</ele>
        <time>2017-05-17T05:58:01Z</time>
      </trkpt>
      <trkpt lat="48.01733" lon="6.8732">
        <ele>973</ele>
        <time>2017-05-17T06:00:01Z</time>
      </trkpt>
      <trkpt lat="48.0174" lon="6.87286">
        <ele>975</ele>
        <time>2017-05-17T06:02:01Z</time>
      </trkpt>
      <trkpt lat="48.01746" lon="6.87196">
        <ele>976</ele>
        <time>2017-05-17T06:04:01Z</time>
      </trkpt>
      <trkpt lat="48.01711" lon="6.87142">
        <ele>971</ele>
        <time>2017-05-17T06:06:01Z</time>
      </trkpt>
      <trkpt lat="48.01658" lon="6.87059">
        <ele>967</ele>
        <time>2017-05-17T06:08:01Z</time>
      </trkpt>
      <trkpt lat="48.0167" lon="6.86885">
        <ele>964</ele>
        <time>2017-05-17T06:10:01Z</time>
      </trkpt>
      <trkpt lat="48.01598" lon="6.86861">
        <ele>968</ele>
        <time>2017-05-17T06:12:01Z</time>
      </trkpt>
      <trkpt lat="48.01564" lon="6.8688">
        <ele>966</ele>
        <time>2017-05-17T06:14:01Z</time>
      </trkpt>
      <trkpt lat="48.01523" lon="6.86799">
        <ele>959</ele>
        <time>2017-05-17T06:16:01Z</time>
      </trkpt>
      <trkpt lat="48.01522" lon="6.86677">
        <ele>960</ele>
        <time>2017-05-17T06:18:01Z</time>
      </trkpt>
      <trkpt lat="48.01502" lon="6.86537">
        <ele>968</ele>
        <time>2017-05-17T06:20:01Z</time>
      </trkpt>
      <trkpt lat="48.01479" lon="6.86533">
        <ele>965</ele>
        <time>2017-05-17T06:22:01Z</time>
      </trkpt>
      <trkpt lat="48.01479" lon="6.86438">
        <ele>972</ele>
        <time>2017-05-17T06:24:01Z</time>
      </trkpt>
      <trkpt lat="48.0152" lon="6.86355">
        <ele>979</ele>
        <time>2017-05-17T06:26:01Z</time>
      </trkpt>
      <trkpt lat="48.0142" lon="6.86363">
        <ele>980</ele>
        <time>2017-05-17T06:28:01Z</time>
      </trkpt>
      <trkpt lat="48.01378" lon="6.86293">
        <ele>986</ele>
        <time>2017-05-17T06:30:01Z</time>
      </trkpt>
      <trkpt lat="48.01337" lon="6.86241">
        <ele>990</ele>
        <time>2017-05-17T06:32:01Z</time>
      </trkpt>
      <trkpt lat="48.01287" lon="6.86129">
        <ele>997</ele>
        <time>2017-05-17T06:34:01Z</time>
      </trkpt>
      <trkpt lat="48.01228" lon="6.86129">
        <ele>990</ele>
        <time>2017-05-17T06:36:01Z</time>
      </trkpt>
      <trkpt lat="48.01156" lon="6.86089">
        <ele>987</ele>
        <time>2017-05-17T06:38:01Z</time>
      </trkpt>
      <trkpt lat="48.0108" lon="6.86089">
        <ele>980</ele>
        <time>2017-05-17T06:40:01Z</time>
      </trkpt>
      <trkpt lat="48.0104" lon="6.85994">
        <ele>982</ele>
        <time>2017-05-17T06:42:01Z</time>
      </trkpt>
      <trkpt lat="48.01002" lon="6.85923">
        <ele>986</ele>
        <time>2017-05-17T06:44:01Z</time>
      </trkpt>
      <trkpt lat="48.01012" lon="6.85842">
        <ele>994</ele>
        <time>2017-05-17T06:46:01Z</time>
      </trkpt>
      <trkpt lat="48.01007" lon="6.85793">
        <ele>996</ele>
        <time>2017-05-17T06:48:01Z</time>
      </trkpt>
      <trkpt lat="48.0102" lon="6.85748">
        <ele>1001</ele>
        <time>2017-05-17T06:50:01Z</time>
      </trkpt>
      <trkpt lat="48.01005" lon="6.85619">
        <ele>1001</ele>
        <time>2017-05-17T06:52:01Z</time>
      </trkpt>
      <trkpt lat="48.01034" lon="6.85524">
        <ele>1006</ele>
        <time>2017-05-17T06:54:01Z</time>
      </trkpt>
      <trkpt lat="48.01041" lon="6.85419">
        <ele>1004</ele>
        <time>2017-05-17T06:56:01Z</time>
      </trkpt>
      <trkpt lat="48.0109" lon="6.85353">
        <ele>1010</ele>
        <time>2017-05-17T06:58:01Z</time>
      </trkpt>
      <trkpt lat="48.01126" lon="6.85233">
        <ele>1011</ele>
        <time>2017-05-17T07:00:01Z</time>
      </trkpt>
      <trkpt lat="48.01137" lon="6.85164">
        <ele>1008</ele>
        <time>2017-05-17T07:02:01Z</time>
      </trkpt>
      <trkpt lat="48.01172" lon="6.85147">
        <ele>1014</ele>
        <time>2017-05-17T07:04:01Z</time>
      </trkpt>
      <trkpt lat="48.01203" lon="6.85167">
        <ele>1017</ele>
        <time>2017-05-17T07:06:01Z</time>
      </trkpt>
      <trkpt lat="48.01243" lon="6.85175">
        <ele>1020</ele>
        <time>2017-05-17T07:08:01Z</time>
      </trkpt>
      <trkpt lat="48.0127" lon="6.85141">
        <ele>1018</ele>
        <time>2017-05-17T07:10:01Z</time>
      </trkpt>
      <trkpt lat="48.01287" lon="6.85052">
        <ele>1006</ele>
        <time>2017-05-17T07:12:01Z</time>
      </trkpt>
      <trkpt lat="48.01322" lon="6.84978">
        <ele>991</ele>
        <time>2017-05-17T07:14:01Z</time>
      </trkpt>
      <trkpt lat="48.01339" lon="6.84871">
        <ele>974</ele>
        <time>2017-05-17T07:16:01Z</time>
      </trkpt>
      <trkpt lat="48.01292" lon="6.84881">
        <ele>977</ele>
        <time>2017-05-17T07:18:01Z</time>
      </trkpt>
      <trkpt lat="48.01256" lon="6.8492">
        <ele>984</ele>
        <time>2017-05-17T07:20:01Z</time>
      </trkpt>
      <trkpt lat="48.01228" lon="6.84949">
        <ele>993</ele>
        <time>2017-05-17T07:22:01Z</time>
      </trkpt>
      <trkpt lat="48.01225" lon="6.84906">
        <ele>987</ele>
        <time>2017-05-17T07:24:01Z</time>
      </trkpt>
      <trkpt lat="48.01226" lon="6.8486">
        <ele>981</ele>
        <time>2017-05-17T07:26:01Z</time>
      </trkpt>
      <trkpt lat="48.01206" lon="6.8483">
        <ele>982</ele>
        <time>2017-05-17T07:28:01Z</time>
      </trkpt>
      <trkpt lat="48.01179" lon="6.84804">
        <ele>986</ele>
        <time>2017-05-17T07:30:01Z</time>
      </trkpt>
      <trkpt lat="48.01131" lon="6.84801">
        <ele>983</ele>
        <time>2017-05-17T07:32:01Z</time>
      </trkpt>
      <trkpt lat="48.01123" lon="6.8473">
        <ele>985</ele>
        <time>2017-05-17T07:34:01Z</time>
      </trkpt>
      <trkpt lat="48.0105" lon="6.84675">
        <ele>987</ele>
        <time>2017-05-17T07:36:01Z</time>
      </trkpt>
      <trkpt lat="48.01024" lon="6.84589">
        <ele>995</ele>
        <time>2017-05-17T07:38:01Z</time>
      </trkpt>
      <trkpt lat="48.01002" lon="6.84527">
        <ele>1000</ele>
        <time>2017-05-17T07:40:01Z</time>
      </trkpt>
      <trkpt lat="48.00999" lon="6.84454">
        <ele>1010</ele>
        <time>2017-05-17T07:42:01Z</time>
      </trkpt>
      <trkpt lat="48.01" lon="6.84385">
        <ele>1016</ele>
        <time>2017-05-17T07:44:01Z</time>
      </trkpt>
      <trkpt lat="48.00981" lon="6.84345">
        <ele>1019</ele>
        <time>2017-05-17T07:46:01Z</time>
      </trkpt>
      <trkpt lat="48.00948" lon="6.84311">
        <ele>1021</ele>
        <time>2017-05-17T07:48:01Z</time>
      </trkpt>
      <trkpt lat="48.00877" lon="6.84365">
        <ele>1023</ele>
        <time>2017-05-17T07:50:01Z</time>
      </trkpt>
      <trkpt lat="48.00846" lon="6.84344">
        <ele>1029</ele>
        <time>2017-05-17T07:52:01Z</time>
      </trkpt>
      <trkpt lat="48.00846" lon="6.84281">
        <ele>1035</ele>
        <time>2017-05-17T07:54:01Z</time>
      </trkpt>
      <trkpt lat="48.00862" lon="6.84245">
        <ele>1035</ele>
        <time>2017-05-17T07:56:01Z</time>
      </trkpt>
      <trkpt lat="48.00869" lon="6.84133">
        <ele>1045</ele>
        <time>2017-05-17T07:58:01Z</time>
      </trkpt>
      <trkpt lat="48.00806" lon="6.84046">
        <ele>1053</ele>
        <time>2017-05-17T08:00:01Z</time>
      </trkpt>
      <trkpt lat="48.00758" lon="6.8395">
        <ele>1053</ele>
        <time>2017-05-17T08:02:01Z</time>
      </trkpt>
      <trkpt lat="48.00732" lon="6.83888">
        <ele>1051</ele>
        <time>2017-05-17T08:04:01Z</time>
      </trkpt>
      <trkpt lat="48.00692" lon="6.8388">
        <ele>1052</ele>
        <time>2017-05-17T08:06:01Z</time>
      </trkpt>
      <trkpt lat="48.00642" lon="6.83845">
        <ele>1051</ele>
        <time>2017-05-17T08:08:01Z</time>
      </trkpt>
      <trkpt lat="48.00597" lon="6.83829">
        <ele>1049</ele>
        <time>2017-05-17T08:10:01Z</time>
      </trkpt>
      <trkpt lat="48.00585" lon="6.83722">
        <ele>1044</ele>
        <time>2017-05-17T08:12:01Z</time>
      </trkpt>
      <trkpt lat="48.00552" lon="6.83681">
        <ele>1037</ele>
        <time>2017-05-17T08:14:01Z</time>
      </trkpt>
      <trkpt lat="48.00532" lon="6.83618">
        <ele>1032</ele>
        <time>2017-05-17T08:16:01Z</time>
      </trkpt>
      <trkpt lat="48.00477" lon="6.83688">
        <ele>1026</ele>
        <time>2017-05-17T08:18:01Z</time>
      </trkpt>
      <trkpt lat="48.00445" lon="6.837">
        <ele>1021</ele>
        <time>2017-05-17T08:20:01Z</time>
      </trkpt>
      <trkpt lat="48.00422" lon="6.83657">
        <ele>1015</ele>
        <time>2017-05-17T08:22:01Z</time>
      </trkpt>
      <trkpt lat="48.00429" lon="6.836">
        <ele>1014</ele>
        <time>2017-05-17T08:24:01Z</time>
      </trkpt>
      <trkpt lat="48.00417" lon="6.83543">
        <ele>1013</ele>
        <time>2017-05-17T08:26:01Z</time>
      </trkpt>
      <trkpt lat="48.00376" lon="6.8354">
        <ele>1011</ele>
        <time>2017-05-17T08:28:01Z</time>
      </trkpt>
      <trkpt lat="48.00403" lon="6.83494">
        <ele>1014</ele>
        <time>2017-05-17T08:30:01Z</time>
      </trkpt>
      <trkpt lat="48.00384" lon="6.83467">
        <ele>1012</ele>
        <time>2017-05-17T08:32:01Z</time>
      </trkpt>
      <trkpt lat="48.00342" lon="6.83422">
        <ele>1009</ele>
        <time>2017-05-17T08:34:01Z</time>
      </trkpt>
      <trkpt lat="48.00343" lon="6.83376">
        <ele>1010</ele>
        <time>2017-05-17T08:36:01Z</time>
      </trkpt>
      <trkpt lat="48.00305" lon="6.83319">
        <ele>1013</ele>
        <time>2017-05-17T08:38:01Z</time>
      </trkpt>
      <trkpt lat="48.00263" lon="6.83313">
        <ele>1014</ele>
        <time>2017-05-17T08:40:01Z</time>
      </trkpt>
      <trkpt lat="48.00236" lon="6.83349">
        <ele>1009</ele>
        <time>2017-05-17T08:42:01Z</time>
      </trkpt>
      <trkpt lat="48.00195" lon="6.83283">
        <ele>1014</ele>
        <time>2017-05-17T08:44:01Z</time>
      </trkpt>
      <trkpt lat="48.00172" lon="6.83225">
        <ele>1018</ele>
        <time>2017-05-17T08:46:01Z</time>
      </trkpt>
      <trkpt lat="48.00148" lon="6.83128">
        <ele>1021</ele>
        <time>2017-05-17T08:48:01Z</time>
      </trkpt>
      <trkpt lat="48.00123" lon="6.83075">
        <ele>1021</ele>
        <time>2017-05-17T08:50:01Z</time>
      </trkpt>
      <trkpt lat="48.00081" lon="6.83084">
        <ele>1019</ele>
        <time>2017-05-17T08:52:01Z</time>
      </trkpt>
      <trkpt lat="48.00046" lon="6.83103">
        <ele>1019</ele>
        <time>2017-05-17T08:54:01Z</time>
      </trkpt>
      <trkpt lat="47.99999" lon="6.83134">
        <ele>1017</ele>
        <time>2017-05-17T08:56:01Z</time>
      </trkpt>
      <trkpt lat="47.99952" lon="6.83161">
        <ele>1009</ele>
        <time>2017-05-17T08:58:01Z</time>
      </trkpt>
      <trkpt lat="47.99909" lon="6.83099">
        <ele>1015</ele>
        <time>2017-05-17T09:00:01Z</time>
      </trkpt>
      <trkpt lat="47.99883" lon="6.83052">
        <ele>1019</ele>
        <time>2017-05-17T09:02:01Z</time>
      </trkpt>
      <trkpt lat="47.99814" lon="6.83019">
        <ele>1013</ele>
        <time>2017-05-17T09:04:01Z</time>
      </trkpt>
      <trkpt lat="47.99766" lon="6.82931">
        <ele>1018</ele>
        <time>2017-05-17T09:06:01Z</time>
      </trkpt>
      <trkpt lat="47.99725" lon="6.8288">
        <ele>1017</ele>
        <time>2017-05-17T09:08:01Z</time>
      </trkpt>
      <trkpt lat="47.99705" lon="6.82826">
        <ele>1022</ele>
        <time>2017-05-17T09:10:01Z</time>
      </trkpt>
      <trkpt lat="47.9966" lon="6.82792">
        <ele>1018</ele>
        <time>2017-05-17T09:12:01Z</time>
      </trkpt>
      <trkpt lat="47.99602" lon="6.82742">
        <ele>1009</ele>
        <time>2017-05-17T09:14:01Z</time>
      </trkpt>
      <trkpt lat="47.99584" lon="6.827">
        <ele>1008</ele>
        <time>2017-05-17T09:16:01Z</time>
      </trkpt>
      <trkpt lat="47.99566" lon="6.82641">
        <ele>1006</ele>
        <time>2017-05-17T09:18:01Z</time>
      </trkpt>
      <trkpt lat="47.99544" lon="6.82592">
        <ele>1003</ele>
        <time>2017-05-17T09:20:01Z</time>
      </trkpt>
      <trkpt lat="47.99543" lon="6.82662">
        <ele>995</ele>
        <time>2017-05-17T09:22:01Z</time>
      </trkpt>
      <trkpt lat="47.99546" lon="6.82742">
        <ele>990</ele>
        <time>2017-05-17T09:24:01Z</time>
      </trkpt>
      <trkpt lat="47.99546" lon="6.82821">
        <ele>985</ele>
        <time>2017-05-17T09:26:01Z</time>
      </trkpt>
      <trkpt lat="47.99548" lon="6.82865">
        <ele>980</ele>
        <time>2017-05-17T09:28:01Z</time>
      </trkpt>
      <trkpt lat="47.99567" lon="6.82934">
        <ele>975</ele>
        <time>2017-05-17T09:30:01Z</time>
      </trkpt>
      <trkpt lat="47.99577" lon="6.83025">
        <ele>957</ele>
        <time>2017-05-17T09:32:01Z</time>
      </trkpt>
      <trkpt lat="47.99595" lon="6.83146">
        <ele>937</ele>
        <time>2017-05-17T09:34:01Z</time>
      </trkpt>
      <trkpt lat="47.99623" lon="6.83182">
        <ele>933</ele>
        <time>2017-05-17T09:36:01Z</time>
      </trkpt>
      <trkpt lat="47.9961" lon="6.83237">
        <ele>920</ele>
        <time>2017-05-17T09:38:01Z</time>
      </trkpt>
      <trkpt lat="47.99598" lon="6.83316">
        <ele>905</ele>
        <time>2017-05-17T09:40:01Z</time>
      </trkpt>
      <trkpt lat="47.99581" lon="6.83377">
        <ele>897</ele>
        <time>2017-05-17T09:42:01Z</time>
      </trkpt>
      <trkpt lat="47.99566" lon="6.83446">
        <ele>889</ele>
        <time>2017-05-17T09:44:01Z</time>
      </trkpt>
      <trkpt lat="47.99556" lon="6.83522">
        <ele>882</ele>
        <time>2017-05-17T09:46:01Z</time>
      </trkpt>
      <trkpt lat="47.99548" lon="6.83589">
        <ele>875</ele>
        <time>2017-05-17T09:48:01Z</time>
      </trkpt>
      <trkpt lat="47.99504" lon="6.83651">
        <ele>869</ele>
        <time>2017-05-17T09:50:01Z</time>
      </trkpt>
      <trkpt lat="47.9949" lon="6.83698">
        <ele>863</ele>
        <time>2017-05-17T09:52:01Z</time>
      </trkpt>
      <trkpt lat="47.99472" lon="6.83745">
        <ele>857</ele>
        <time>2017-05-17T09:54:01Z</time>
      </trkpt>
      <trkpt lat="47.99484" lon="6.83815">
        <ele>850</ele>
        <time>2017-05-17T09:56:01Z</time>
      </trkpt>
      <trkpt lat="47.99479" lon="6.83862">
        <ele>844</ele>
        <time>2017-05-17T09:58:01Z</time>
      </trkpt>
      <trkpt lat="47.99466" lon="6.83864">
        <ele>842</ele>
        <time>2017-05-17T10:00:01Z</time>
      </trkpt>
      <trkpt lat="47.99494" lon="6.83892">
        <ele>843</ele>
        <time>2017-05-17T10:02:01Z</time>
      </trkpt>
      <trkpt lat="47.99521" lon="6.83906">
        <ele>840</ele>
        <time>2017-05-17T10:04:01Z</time>
      </trkpt>
      <trkpt lat="47.99511" lon="6.83951">
        <ele>834</ele>
        <time>2017-05-17T10:06:01Z</time>
      </trkpt>
      <trkpt lat="47.99519" lon="6.83983">
        <ele>828</ele>
        <time>2017-05-17T10:08:01Z</time>
      </trkpt>
      <trkpt lat="47.99499" lon="6.84022">
        <ele>823</ele>
        <time>2017-05-17T10:10:01Z</time>
      </trkpt>
      <trkpt lat="47.9948" lon="6.84056">
        <ele>812</ele>
        <time>2017-05-17T10:12:01Z</time>
      </trkpt>
      <trkpt lat="47.99518" lon="6.84044">
        <ele>814</ele>
        <time>2017-05-17T10:14:01Z</time>
      </trkpt>
      <trkpt lat="47.99545" lon="6.84019">
        <ele>816</ele>
        <time>2017-05-17T10:16:01Z</time>
      </trkpt>
      <trkpt lat="47.9958" lon="6.84001">
        <ele>815</ele>
        <time>2017-05-17T10:18:01Z</time>
      </trkpt>
      <trkpt lat="47.99607" lon="6.83993">
        <ele>812</ele>
        <time>2017-05-17T10:20:01Z</time>
      </trkpt>
      <trkpt lat="47.99593" lon="6.84028">
        <ele>806</ele>
        <time>2017-05-17T10:22:01Z</time>
      </trkpt>
      <trkpt lat="47.99591" lon="6.84052">
        <ele>799</ele>
        <time>2017-05-17T10:24:01Z</time>
      </trkpt>
      <trkpt lat="47.99601" lon="6.84067">
        <ele>794</ele>
        <time>2017-05-17T10:26:01Z</time>
      </trkpt>
      <trkpt lat="47.99569" lon="6.84101">
        <ele>791</ele>
        <time>2017-05-17T10:28:01Z</time>
      </trkpt>
      <trkpt lat="47.9955" lon="6.84133">
        <ele>787</ele>
        <time>2017-05-17T10:30:01Z</time>
      </trkpt>
      <trkpt lat="47.99512" lon="6.84185">
        <ele>781</ele>
        <time>2017-05-17T10:32:01Z</time>
      </trkpt>
      <trkpt lat="47.99476" lon="6.8425">
        <ele>764</ele>
        <time>2017-05-17T10:34:01Z</time>
      </trkpt>
      <trkpt lat="47.99431" lon="6.84262">
        <ele>758</ele>
        <time>2017-05-17T10:36:01Z</time>
      </trkpt>
      <trkpt lat="47.99402" lon="6.84201">
        <ele>767</ele>
        <time>2017-05-17T10:38:01Z</time>
      </trkpt>
      <trkpt lat="47.99369" lon="6.84164">
        <ele>763</ele>
        <time>2017-05-17T10:40:01Z</time>
      </trkpt>
      <trkpt lat="47.9934" lon="6.84126">
        <ele>761</ele>
        <time>2017-05-17T10:42:01Z</time>
      </trkpt>
      <trkpt lat="47.99322" lon="6.84092">
        <ele>761</ele>
        <time>2017-05-17T10:44:01Z</time>
      </trkpt>
      <trkpt lat="47.99337" lon="6.84157">
        <ele>753</ele>
        <time>2017-05-17T10:46:01Z</time>
      </trkpt>
      <trkpt lat="47.99353" lon="6.84216">
        <ele>745</ele>
        <time>2017-05-17T10:48:01Z</time>
      </trkpt>
      <trkpt lat="47.99371" lon="6.84267">
        <ele>740</ele>
        <time>2017-05-17T10:50:01Z</time>
      </trkpt>
      <trkpt lat="47.99389" lon="6.84326">
        <ele>731</ele>
        <time>2017-05-17T10:52:01Z</time>
      </trkpt>
      <trkpt lat="47.99381" lon="6.84364">
        <ele>723</ele>
        <time>2017-05-17T10:54:01Z</time>
      </trkpt>
      <trkpt lat="47.99364" lon="6.84428">
        <ele>710</ele>
        <time>2017-05-17T10:56:01Z</time>
      </trkpt>
      <trkpt lat="47.99391" lon="6.84482">
        <ele>706</ele>
        <time>2017-05-17T10:58:01Z</time>
      </trkpt>
      <trkpt lat="47.99377" lon="6.84481">
        <ele>703</ele>
        <time>2017-05-17T11:00:01Z</time>
      </trkpt>
      <trkpt lat="47.9936" lon="6.84479">
        <ele>699</ele>
        <time>2017-05-17T11:02:01Z</time>
      </trkpt>
      <trkpt lat="47.99368" lon="6.84495">
        <ele>698</ele>
        <time>2017-05-17T11:04:01Z</time>
      </trkpt>
      <trkpt lat="47.99355" lon="6.84495">
        <ele>695</ele>
        <time>2017-05-17T11:06:01Z</time>
      </trkpt>
      <trkpt lat="47.99331" lon="6.84475">
        <ele>692</ele>
        <time>2017-05-17T11:08:01Z</time>
      </trkpt>
      <trkpt lat="47.99331" lon="6.84493">
        <ele>689</ele>
        <time>2017-05-17T11:10:01Z</time>
      </trkpt>
      <trkpt lat="47.99341" lon="6.84511">
        <ele>688</ele>
        <time>2017-05-17T11:12:01Z</time>
      </trkpt>
      <trkpt lat="47.99322" lon="6.8451">
        <ele>682</ele>
        <time>2017-05-17T11:14:01Z</time>
      </trkpt>
      <trkpt lat="47.99325" lon="6.84535">
        <ele>678</ele>
        <time>2017-05-17T11:16:01Z</time>
      </trkpt>
      <trkpt lat="47.99309" lon="6.84541">
        <ele>670</ele>
        <time>2017-05-17T11:18:01Z</time>
      </trkpt>
      <trkpt lat="47.99288" lon="6.84497">
        <ele>669</ele>
        <time>2017-05-17T11:20:01Z</time>
      </trkpt>
      <trkpt lat="47.99265" lon="6.84418">
        <ele>671</ele>
        <time>2017-05-17T11:22:01Z</time>
      </trkpt>
      <trkpt lat="47.99259" lon="6.84468">
        <ele>661</ele>
        <time>2017-05-17T11:24:01Z</time>
      </trkpt>
      <trkpt lat="47.99268" lon="6.8451">
        <ele>658</ele>
        <time>2017-05-17T11:26:01Z</time>
      </trkpt>
      <trkpt lat="47.99266" lon="6.8454">
        <ele>653</ele>
        <time>2017-05-17T11:28:01Z</time>
      </trkpt>
      <trkpt lat="47.99275" lon="6.84568">
        <ele>652</ele>
        <time>2017-05-17T11:30:01Z</time>
      </trkpt>
      <trkpt lat="47.99287" lon="6.84607">
        <ele>651</ele>
        <time>2017-05-17T11:32:01Z</time>
      </trkpt>
      <trkpt lat="47.99302" lon="6.84651">
        <ele>651</ele>
        <time>2017-05-17T11:34:01Z</time>
      </trkpt>
      <trkpt lat="47.99321" lon="6.8468">
        <ele>652</ele>
        <time>2017-05-17T11:36:01Z</time>
      </trkpt>
      <trkpt lat="47.99331" lon="6.84704">
        <ele>651</ele>
        <time>2017-05-17T11:38:01Z</time>
      </trkpt>
      <trkpt lat="47.99349" lon="6.84727">
        <ele>651</ele>
        <time>2017-05-17T11:40:01Z</time>
      </trkpt>
      <trkpt lat="47.99376" lon="6.84775">
        <ele>645</ele>
        <time>2017-05-17T11:42:01Z</time>
      </trkpt>
      <trkpt lat="47.99336" lon="6.84774">
        <ele>639</ele>
        <time>2017-05-17T11:44:01Z</time>
      </trkpt>
      <trkpt lat="47.9931" lon="6.84756">
        <ele>636</ele>
        <time>2017-05-17T11:46:01Z</time>
      </trkpt>
      <trkpt lat="47.99263" lon="6.84738">
        <ele>627</ele>
        <time>2017-05-17T11:48:01Z</time>
      </trkpt>
      <trkpt lat="47.99242" lon="6.84732">
        <ele>623</ele>
        <time>2017-05-17T11:50:01Z</time>
      </trkpt>
      <trkpt lat="47.99212" lon="6.84703">
        <ele>619</ele>
        <time>2017-05-17T11:52:01Z</time>
      </trkpt>
      <trkpt lat="47.99149" lon="6.84674">
        <ele>607</ele>
        <time>2017-05-17T11:54:01Z</time>
      </trkpt>
      <trkpt lat="47.99152" lon="6.84756">
        <ele>600</ele>
        <time>2017-05-17T11:56:01Z</time>
      </trkpt>
      <trkpt lat="47.99125" lon="6.84773">
        <ele>596</ele>
        <time>2017-05-17T11:58:01Z</time>
      </trkpt>
      <trkpt lat="47.99176" lon="6.84808">
        <ele>598</ele>
        <time>2017-05-17T12:00:01Z</time>
      </trkpt>
      <trkpt lat="47.99221" lon="6.84847">
        <ele>601</ele>
        <time>2017-05-17T12:02:01Z</time>
      </trkpt>
      <trkpt lat="47.99261" lon="6.84873">
        <ele>602</ele>
        <time>2017-05-17T12:04:01Z</time>
      </trkpt>
      <trkpt lat="47.99315" lon="6.84922">
        <ele>601</ele>
        <time>2017-05-17T12:06:01Z</time>
      </trkpt>
      <trkpt lat="47.99353" lon="6.84989">
        <ele>599</ele>
        <time>2017-05-17T12:08:01Z</time>
      </trkpt>
      <trkpt lat="47.99372" lon="6.8504">
        <ele>599</ele>
        <time>2017-05-17T12:10:01Z</time>
      </trkpt>
      <trkpt lat="47.99383" lon="6.85107">
        <ele>599</ele>
        <time>2017-05-17T12:12:01Z</time>
      </trkpt>
      <trkpt lat="47.99381" lon="6.85147">
        <ele>599</ele>
        <time>2017-05-17T12:14:01Z</time>
      </trkpt>
      <trkpt lat="47.99412" lon="6.85189">
        <ele>602</ele>
        <time>2017-05-17T12:16:01Z</time>
      </trkpt>
      <trkpt lat="47.99427" lon="6.85375">
        <ele>603</ele>
        <time>2017-05-17T12:18:01Z</time>
      </trkpt>
      <trkpt lat="47.99431" lon="6.85445">
        <ele>605</ele>
        <time>2017-05-17T12:20:01Z</time>
      </trkpt>
      <trkpt lat="47.99513" lon="6.85562">
        <ele>610</ele>
        <time>2017-05-17T12:22:01Z</time>
      </trkpt>
      <trkpt lat="47.99597" lon="6.85621">
        <ele>613</ele>
        <time>2017-05-17T12:24:01Z</time>
      </trkpt>
      <trkpt lat="47.99699" lon="6.85733">
        <ele>615</ele>
        <time>2017-05-17T12:26:01Z</time>
      </trkpt>
      <trkpt lat="47.99747" lon="6.858">
        <ele>613</ele>
        <time>2017-05-17T12:28:01Z</time>
      </trkpt>
      <trkpt lat="47.99786" lon="6.85853">
        <ele>612</ele>
        <time>2017-05-17T12:30:01Z</time>
      </trkpt>
      <trkpt lat="47.99814" lon="6.85949">
        <ele>610</ele>
        <time>2017-05-17T12:32:01Z</time>
      </trkpt>
      <trkpt lat="47.99843" lon="6.86046">
        <ele>610</ele>
        <time>2017-05-17T12:34:01Z</time>
      </trkpt>
      <trkpt lat="47.99845" lon="6.8612">
        <ele>610</ele>
        <time>2017-05-17T12:36:01Z</time>
      </trkpt>
      <trkpt lat="47.99875" lon="6.8621">
        <ele>610</ele>
        <time>2017-05-17T12:38:01Z</time>
      </trkpt>
      <trkpt lat="47.99904" lon="6.8621">
        <ele>610</ele>
        <time>2017-05-17T12:40:01Z</time>
      </trkpt>
      <trkpt lat="47.99934" lon="6.8628">
        <ele>616</ele>
        <time>2017-05-17T12:42:01Z</time>
      </trkpt>
      <trkpt lat="48.00019" lon="6.86598">
        <ele>620</ele>
        <time>2017-05-17T12:44:01Z</time>
      </trkpt>
      <trkpt lat="48.00077" lon="6.86776">
        <ele>621</ele>
        <time>2017-05-17T12:46:01Z</time>
      </trkpt>
      <trkpt lat="48.00188" lon="6.87081">
        <ele>629</ele>
        <time>2017-05-17T12:48:01Z</time>
      </trkpt>
      <trkpt lat="48.00193" lon="6.87171">
        <ele>628</ele>
        <time>2017-05-17T12:50:01Z</time>
      </trkpt>
      <trkpt lat="48.00188" lon="6.8721">
        <ele>628</ele>
        <time>2017-05-17T12:52:01Z</time>
      </trkpt>
      <trkpt lat="48.00223" lon="6.87247">
        <ele>629</ele>
        <time>2017-05-17T12:54:01Z</time>
      </trkpt>
      <trkpt lat="48.00214" lon="6.87275">
        <ele>630</ele>
        <time>2017-05-17T12:56:01Z</time>
      </trkpt>
      <trkpt lat="48.00226" lon="6.87289">
        <ele>630</ele>
        <time>2017-05-17T12:58:01Z</time>
      </trkpt>
    </trkseg>
  </trk>
</gpx>